Dados Meteorológicos "Online"
 
  Base de Dados  
 
Dinamização da Estação Meteorológica (na escola)
 
Dados relativos aos últimos 2 meses:
Data/HoraTemperaturaHumi. Rela.PressãoPrecipitaçãoVel.VentoDir.VentoVel.RajadaDir.RajadaRadiação SolarÍndice U.V.
(ºC)(%)(hPa)(mm)(km/h)(km/h)(W / m2)(0-11)
2017-09-24 07:00:0015,182,61016,902,3N4,7NW00
2017-09-24 06:00:0015,780,21016,301,2N2,7N-10
2017-09-24 05:00:0016,278,81016,001,2S8,4SE00
2017-09-24 04:00:0016,677,51016,101,6E4,9NE-10
2017-09-24 03:00:0017,476,91016,403,0NE5,8NE00
2017-09-24 02:00:0018,075,01016,503,3NE8,7E-10
2017-09-24 01:00:0018,376,91016,402,6NE8,9NE-10
2017-09-24 00:00:0018,677,41016,102,4NE12,7N-10
2017-09-23 23:00:0019,475,31015,403,5N13,7NW00
2017-09-23 22:00:0020,373,81015,005,5N13,7NW00
2017-09-23 21:00:0021,069,61014,507,1NW14,6NW00
2017-09-23 20:00:0022,463,61013,909,3NW22,9NW60
2017-09-23 19:00:0024,659,81013,607,6W19,7NW320,0
2017-09-23 18:00:0025,959,31013,607,0SW15,2W1610,5
2017-09-23 17:00:0028,251,61013,907,6SW15,8SW4551,6
2017-09-23 16:00:0028,650,51014,209,1S17,2SW5972,8
2017-09-23 15:00:0028,052,51014,6010,9S19,9S6803,7
2017-09-23 14:00:0027,854,01015,3011,1S22,4SE7024,1
2017-09-23 13:00:0027,754,01016,009,2S18,3S6863,8
2017-09-23 12:00:0026,756,21016,107,8S17,3S5972,8
2017-09-23 11:00:0025,462,41015,906,6S12,7S4741,7
2017-09-23 10:00:0022,366,21015,604,1SE12,4SE3020,7
2017-09-23 09:00:0017,173,71015,402,7E7,6E1410,1
2017-09-23 08:00:0014,679,41014,802,3E7,0SE150
2017-09-23 07:00:0014,480,31014,502,4E10,4E00
2017-09-23 06:00:0014,579,01014,203,5E7,0E00
2017-09-23 05:00:0014,677,41014,002,4NE5,1N00
2017-09-23 04:00:0015,375,31014,002,3NE5,3SE-10
2017-09-23 03:00:0015,872,21014,202,3NE10,9SE-10
2017-09-23 02:00:0016,471,41014,103,4NE6,7NE00
2017-09-23 01:00:0016,772,21014,002,5NE4,8E-10
2017-09-23 00:00:0017,569,51013,502,6N5,2E-10
2017-09-22 23:00:0017,769,01013,305,2N8,7N00
2017-09-22 22:00:0018,666,01012,704,3N9,7N00
2017-09-22 21:00:0019,961,81012,004,7NW14,7NW00
2017-09-22 20:00:0021,557,71011,507,5NW17,1W50
2017-09-22 19:00:0024,249,01011,209,4W30,5W360,1
2017-09-22 18:00:0027,241,51011,2010,3W21,9NW1970,5
2017-09-22 17:00:0029,439,61011,8010,8SW19,0SW4541,5
2017-09-22 16:00:0030,032,71012,5010,7SW20,4SW6212,9
2017-09-22 15:00:0030,335,51013,0010,0SW19,6SW7213,9
2017-09-22 14:00:0028,340,21013,409,5SW16,4S7474,2
2017-09-22 13:00:0027,243,31014,108,2S15,8S7113,9
2017-09-22 12:00:0025,148,41014,607,4SE16,6SE6282,9
2017-09-22 11:00:0023,351,81014,908,9NE18,4NE4951,8
2017-09-22 10:00:0020,761,41015,005,8NE16,2NE3290,7
2017-09-22 09:00:0016,281,91015,002,6S13,4E1610,1
2017-09-22 08:00:0014,290,11014,801,8S4,7SW170
2017-09-22 07:00:0014,588,61014,301,9S4,9SE00
2017-09-22 06:00:0015,484,91013,902,1SW7,2W00
2017-09-22 05:00:0016,681,91013,804,5E11,4E-10
2017-09-22 04:00:0016,482,91014,104,8E11,3E-10
2017-09-22 03:00:0016,581,11013,901,7N6,0N00
2017-09-22 02:00:0017,180,71013,703,7N9,4N-10
2017-09-22 01:00:0017,979,01013,503,2N15,5N00
2017-09-22 00:00:0018,579,21013,205,0NW9,8NW00
2017-09-21 23:00:0019,276,61012,905,7NW11,8NW00
2017-09-21 22:00:0020,173,21012,607,2NW15,8NW00
2017-09-21 21:00:0021,268,21012,008,3NW18,8NW00
2017-09-21 20:00:0022,563,01011,3012,3NW28,1N50
2017-09-21 19:00:0023,957,81010,6016,2NW35,9NW260,0
2017-09-21 18:00:0027,043,11010,8012,7NW27,8NW1680,5
2017-09-21 17:00:0029,934,01011,309,9W25,3W4841,6
2017-09-21 16:00:0030,733,51012,0010,6SW21,9W5892,8
2017-09-21 15:00:0029,732,31012,5011,5SW22,7SW6373,5
2017-09-21 14:00:0029,633,31013,1011,1SW19,5SW7224,1
2017-09-21 13:00:0028,835,01013,708,8SW17,0S6973,8
2017-09-21 12:00:0026,838,41014,305,0SE9,3SE6162,9
2017-09-21 11:00:0024,747,11014,505,6SE11,2E4871,8
2017-09-21 10:00:0021,258,11014,404,3E11,4E3230,7
2017-09-21 09:00:0015,870,61014,502,2E6,7E1470,1
2017-09-21 08:00:0013,174,91014,001,8NE4,8NW160
2017-09-21 07:00:0013,173,21013,502,0NE5,7N00
2017-09-21 06:00:0013,474,21013,202,2NE7,1NE00
2017-09-21 05:00:0013,672,31013,201,1NE5,1E00
2017-09-21 04:00:0014,370,21013,002,5N4,8N00
2017-09-21 03:00:0015,169,41013,502,5N5,0NW00
2017-09-21 02:00:0015,668,41013,602,4E5,4E-10
2017-09-21 01:00:0016,366,01013,402,0N4,8N00
2017-09-21 00:00:0017,063,21013,303,4N6,3N00
2017-09-20 23:00:0017,660,61013,002,4NW5,6N00
2017-09-20 22:00:0019,254,61012,701,9NW5,4W-10
2017-09-20 21:00:0020,550,11012,003,0W8,3NW00
2017-09-20 20:00:0022,845,71011,906,4NW17,6NW60
2017-09-20 19:00:0025,442,11011,908,9W18,6NW440,1
2017-09-20 18:00:0026,842,11012,209,4SW16,3SW2040,6
2017-09-20 17:00:0027,543,51012,7011,0SW19,4SW5151,7
2017-09-20 16:00:0027,742,91013,4010,5SW20,7S6383,0
2017-09-20 15:00:0027,141,21014,2010,3SW19,3SW7264,0
2017-09-20 14:00:0026,841,31014,909,3SW17,3SW7464,4
2017-09-20 13:00:0025,746,81015,709,1S14,8S7104,0
2017-09-20 12:00:0025,746,11016,107,7S12,5S6233,0
2017-09-20 11:00:0024,349,51016,203,7SE10,1S4881,8
2017-09-20 10:00:0021,258,61016,201,8NE5,3E3210,7
2017-09-20 09:00:0015,778,41016,100,9NW3,6NW1500,1
2017-09-20 08:00:0013,585,31015,901,8NW4,1NW180
2017-09-20 07:00:0013,784,71015,801,6NW8,7NW00
2017-09-20 06:00:0014,084,91015,802,0N3,7N00
2017-09-20 05:00:0014,384,51015,901,7N9,3N00
2017-09-20 04:00:0014,982,71016,001,9N11,1N00
2017-09-20 03:00:0015,381,71016,401,9N4,2NW00
2017-09-20 02:00:0015,780,51016,602,0N6,2N00
2017-09-20 01:00:0016,677,41016,801,6N4,8NW00
2017-09-20 00:00:0017,374,71016,701,8N4,4N00
2017-09-19 23:00:0017,773,21016,402,9NW6,9NW00
2017-09-19 22:00:0018,968,71016,202,5NW7,5NW-10
2017-09-19 21:00:0020,164,51015,604,6NW10,9NW00
2017-09-19 20:00:0022,159,11015,006,6NW20,2NW80
2017-09-19 19:00:0024,153,71014,8011,1W25,2W370,1
2017-09-19 18:00:0026,747,11014,9013,2W26,2W2150,6
2017-09-19 17:00:0029,940,31015,4011,8W25,8NW4971,6
2017-09-19 16:00:0030,539,91016,309,3SW21,3SW6202,8
2017-09-19 15:00:0028,543,91017,309,5SW18,0SW7063,7
2017-09-19 14:00:0027,943,41018,008,9SW16,3SW7314,1
2017-09-19 13:00:0026,545,01018,806,7SW17,6SW6983,7
2017-09-19 12:00:0023,752,91019,505,3S16,4S6192,9
2017-09-19 11:00:0021,760,41019,904,0SE8,8SE4871,7
2017-09-19 10:00:0019,669,61019,902,6E6,4SE3230,7
2017-09-19 09:00:0015,883,81020,002,7SE8,0SE1520,1
2017-09-19 08:00:0013,887,41019,502,1W7,6N180
2017-09-19 07:00:0014,485,51019,203,1S10,4NW-10
2017-09-19 06:00:0014,185,41019,003,5SW10,7SE-10
2017-09-19 05:00:0014,185,81018,905,0SW14,1SW00
2017-09-19 04:00:0014,185,71018,802,8SW7,9SW00
2017-09-19 03:00:0014,583,91019,102,2SW4,9S00
2017-09-19 02:00:0015,082,31019,103,5SW10,0SW00
2017-09-19 01:00:0015,878,81019,102,7S6,5SW00
2017-09-19 00:00:0016,776,71019,203,7N15,2N-10
2017-09-18 23:00:0017,869,31019,005,7NW16,5NW00
2017-09-18 22:00:0018,462,71018,6013,2NW40,8NW00
2017-09-18 21:00:0019,064,51018,1010,7NW24,8NW00
2017-09-18 20:00:0020,369,21017,7010,6NW22,7N70
2017-09-18 19:00:0021,575,61017,7011,9NW29,2NW430,1
2017-09-18 18:00:0023,370,21017,9014,2NW31,3NW2100,4
2017-09-18 17:00:0025,659,51018,0015,3NW32,1N4261,7
2017-09-18 16:00:0027,052,21018,0018,6NW35,2N6373,2
2017-09-18 15:00:0027,250,01018,1018,6NW38,7NW7184,1
2017-09-18 14:00:0027,647,81018,4016,0NW33,9W7414,5
2017-09-18 13:00:0026,745,91019,209,2NW25,5NW7064,2
2017-09-18 12:00:0024,549,01019,806,8S12,5SE6263,2
2017-09-18 11:00:0022,552,71020,007,1S13,1S4951,9
2017-09-18 10:00:0020,558,71019,803,9E12,7SE3360,8
2017-09-18 09:00:0015,375,01019,701,7W6,2NW1690,1
2017-09-18 08:00:0013,177,51019,103,0SW7,3W220
2017-09-18 07:00:0012,775,31018,602,3W9,0S00
2017-09-18 06:00:0012,377,01018,202,7W6,8W00
2017-09-18 05:00:0012,873,11017,804,2SW9,8SW00
2017-09-18 04:00:0013,470,01017,801,3S5,6SW00
2017-09-18 03:00:0013,572,91017,704,2N11,5N00
2017-09-18 02:00:0014,075,21017,502,6N5,0N00
2017-09-18 01:00:0014,672,41017,402,6NW8,4N00
2017-09-18 00:00:0015,767,01017,105,7NW15,0N-10
2017-09-17 23:00:0016,163,91016,905,8NW14,2N00
2017-09-17 22:00:0017,060,41016,306,2NW14,4N00
2017-09-17 21:00:0018,257,21015,2011,7NW28,0NW00
2017-09-17 20:00:0019,552,21014,2015,0NW32,0NW60
2017-09-17 19:00:0021,246,71013,8014,9NW30,5NW210,1
2017-09-17 18:00:0023,839,91013,9013,5NW30,0NW2870,7
2017-09-17 17:00:0026,835,51014,1012,6NW27,2NW5502,0
2017-09-17 16:00:0028,233,21014,409,3W24,4W6683,3
2017-09-17 15:00:0028,231,11015,309,0SW18,0SW7604,4
2017-09-17 14:00:0026,430,21016,108,1SW16,1SW7834,7
2017-09-17 13:00:0025,332,81016,708,5SW16,8S7464,3
2017-09-17 12:00:0023,835,61017,006,3SW13,6SW6593,3
2017-09-17 11:00:0021,938,61017,204,6SE12,3NE5072,0
2017-09-17 10:00:0020,043,51016,902,7NW11,3N3550,8
2017-09-17 09:00:0015,056,41016,702,6W6,9NW1720,1
2017-09-17 08:00:0013,660,31016,205,3N13,6NE230
2017-09-17 07:00:0014,256,91015,805,9N19,3NE00
2017-09-17 06:00:0014,855,91015,707,1NE16,7NE00
2017-09-17 05:00:0014,157,71015,605,8NE14,2NE-10
2017-09-17 04:00:0013,757,81015,504,0NE8,9N00
2017-09-17 03:00:0014,156,21015,404,3NE12,2NE00
2017-09-17 02:00:0013,858,01015,503,7NE9,0NE-10
2017-09-17 01:00:0014,059,51015,103,7N11,6N00
2017-09-17 00:00:0014,859,61014,702,7N5,4NW00
2017-09-16 23:00:0015,659,71014,103,8NW11,1NW00
2017-09-16 22:00:0017,155,71013,307,5NW17,7NW-10
2017-09-16 21:00:0017,854,71012,6010,6NW23,1NW00
2017-09-16 20:00:0019,248,91011,7015,8NW31,8NW80
2017-09-16 19:00:0020,846,21011,1014,3NW34,2N240,1
2017-09-16 18:00:0022,542,11010,8016,0NW35,4NW3040,7
2017-09-16 17:00:0024,638,61010,9017,9NW37,6NW5502,0
2017-09-16 16:00:0026,236,11011,3015,6NW35,6NW6713,3
2017-09-16 15:00:0026,236,71011,8014,6NW30,7NW7604,3
2017-09-16 14:00:0025,538,61012,4013,6NW29,4NW7804,6
2017-09-16 13:00:0024,733,31013,108,7NW21,9NW7494,2
2017-09-16 12:00:0022,835,01013,7012,0N29,6N6723,2
2017-09-16 11:00:0020,940,71014017,4N29,1N5301,9
2017-09-16 10:00:0019,150,41014,0012,4N28,4NW3560,8
2017-09-16 09:00:0015,270,91013,605,4NW14,8NW1780,1
2017-09-16 08:00:0013,777,81013,108,7NW17,6NW250
2017-09-16 07:00:0013,878,61012,608,0N17,0NW00
2017-09-16 06:00:0014,277,51012,2012,5NW24,5NW00
2017-09-16 05:00:0014,375,01012,2012,0NW27,8N00
2017-09-16 04:00:0013,772,71012,505,1NW16,0NW00
2017-09-16 03:00:0013,470,71012,706,2NW15,7NW00
2017-09-16 02:00:0013,966,41013,104,8NW11,2W00
2017-09-16 01:00:0014,562,61013,404,9NW12,6N00
2017-09-16 00:00:0014,463,31013,205,3NW14,8NW00
2017-09-15 23:00:0015,365,71012,807,5NW18,1NW00
2017-09-15 22:00:0015,963,21012,409,9NW24,8NW00
2017-09-15 21:00:0016,362,71011,9015,1NW33,6NW00
2017-09-15 20:00:0017,357,91011,0018,1NW36,8N80
2017-09-15 19:00:0015,184,11010,5022,0NW45,5NW280,1
2017-09-15 18:00:0016,876,81010,4023,6NW46,6N3210,7
2017-09-15 17:00:0024,536,91010,9019,6NW43,2N5592,0
2017-09-15 16:00:0025,437,71011,3019,3NW39,6N6783,3
2017-09-15 15:00:0025,837,01011,7018,6NW39,2NW7664,3
2017-09-15 14:00:0025,238,11012,2016,5NW33,0NW7924,7
2017-09-15 13:00:0024,438,11012,9016,8NW34,9NW7554,2
2017-09-15 12:00:0023,339,31013,7016,0NW33,0NW6743,2
2017-09-15 11:00:0021,241,91014,1016,5NW30,2N5331,9
2017-09-15 10:00:0019,249,71014,2012,9NW26,1NW3490,8
2017-09-15 09:00:0016,361,71014,207,6NW21,6NW1720,1
2017-09-15 08:00:0014,669,61013,807,2NW15,7NW250,0
2017-09-15 07:00:0015,168,81013,503,7NW12,3NW00
2017-09-15 06:00:0016,063,81013,106,9NW14,9W-10
2017-09-15 05:00:0016,555,11013,003,9W13,7N00
2017-09-15 04:00:0016,847,41013,005,2N14,9N00
2017-09-15 03:00:0016,547,41013,003,0N15,6N00
2017-09-15 02:00:0017,646,91013,102,1NW9,1SW00
2017-09-15 01:00:0019,046,31013,303,4NW11,2NW00
2017-09-15 00:00:0019,750,61013,207,7NW17,9NW00
2017-09-14 23:00:0019,764,61013,006,5NW14,8NW00
2017-09-14 22:00:0020,668,81012,609,6NW23,3W00
2017-09-14 21:00:0021,968,41012,0013,2NW28,5NW-10
2017-09-14 20:00:0023,763,01011,6016,0NW36,7NW200,0
2017-09-14 19:00:0025,256,11011,4016,9NW33,6NW620,1
2017-09-14 18:00:0027,945,81011,7015,1NW34,5NW2250,7
2017-09-14 17:00:0030,739,41012,6012,3NW27,2NW4812,0
2017-09-14 16:00:0031,836,91013,5010,2W24,0NW6203,3
2017-09-14 15:00:0032,337,51014,7010,0SW22,8W6354,1
2017-09-14 14:00:0031,634,41015,409,3SW24,5SW7865,1
2017-09-14 13:00:0029,836,91016,507,5S16,7SE7184,5
2017-09-14 12:00:0027,742,31017,303,8W13,3NE6583,5
2017-09-14 11:00:0025,649,11017,904,9E11,4E5152,2
2017-09-14 10:00:0023,457,21017,602,9NE11,3NE3811,0
2017-09-14 09:00:0018,673,01017,603,7N7,7N2130,2
2017-09-14 08:00:0015,583,81017,401,4N4,7N450,0
2017-09-14 07:00:0015,283,71017,202,2SE5,2E-10
2017-09-14 06:00:0015,284,21016,801,4S3,5SW-10
2017-09-14 05:00:0015,682,41016,602,0S4,7NW00
2017-09-14 04:00:0015,781,51016,501,6N5,1W00
2017-09-14 03:00:0016,281,01016,301,6N6,5E00
2017-09-14 02:00:0016,977,11016,101,7N13,0NW00
2017-09-14 01:00:0017,574,91016,302,9N11,1NE00
2017-09-14 00:00:0018,272,81016,401,4NE5,2E-10
2017-09-13 23:00:0019,367,41016,001,6W8,6NW-10
2017-09-13 22:00:0020,364,01015,203,7NW13,0W00
2017-09-13 21:00:0021,860,61014,305,7NW13,1W-10
2017-09-13 20:00:0024,254,41013,908,2W16,4NW70,0
2017-09-13 19:00:0024,559,71013,904,1SW12,3W250,1
2017-09-13 18:00:0026,550,71014,208,9S21,2SW3350,8
2017-09-13 17:00:0028,948,41015,0013,1SW24,2SW5602,2
2017-09-13 16:00:0030,044,81015,408,9SW22,6S6823,6
2017-09-13 15:00:0029,546,51016,1010,9S20,0S7684,7
2017-09-13 14:00:0029,247,31016,608,7S16,3S7865,1
2017-09-13 13:00:0028,844,01017,108,6S17,1S7474,6
2017-09-13 12:00:0028,939,81017,1010,0S17,7S6643,5
2017-09-13 11:00:0028,543,21016,806,5S15,1SW5272,1
2017-09-13 10:00:0025,052,81016,203,6E9,0SE3580,9
2017-09-13 09:00:0019,669,31016,004,2NE7,4NE1830,2
2017-09-13 08:00:0017,077,01015,604,5N8,5N290,0
2017-09-13 07:00:0017,275,51014,903,8N8,6N00
2017-09-13 06:00:0019,071,91014,403,8NE10,6N-10
2017-09-13 05:00:0019,670,21014,206,3E12,2NE-10
2017-09-13 04:00:0019,467,61014,303,7NE11,4E-10
2017-09-13 03:00:0020,564,31014,504,3NE9,6NE-10
2017-09-13 02:00:0020,963,51014,603,7NE12,4NE00
2017-09-13 01:00:0020,962,31014,405,0NE10,9E-10
2017-09-13 00:00:0021,060,81014,103,8N11,3NW-10
2017-09-12 23:00:0021,957,91013,806,1N10,8N-10
2017-09-12 22:00:0023,353,31013,306,8NW13,1NW00
2017-09-12 21:00:0024,649,61012,5010,4NW22,4N-10
2017-09-12 20:00:0026,346,11011,7012,9NW26,0N80,0
2017-09-12 19:00:0028,840,41011,1015,1NW32,0NW380,1
2017-09-12 18:00:0032,731,61011,1016,0NW35,2NW3410,9
2017-09-12 17:00:0035,926,51011,7012,9NW30,7W5642,3
2017-09-12 16:00:0036,822,71012,407,2S17,4SE6833,7
2017-09-12 15:00:0036,124,21012,8010,4SW18,3SW7734,8
2017-09-12 14:00:0034,125,31013,209,2SW21,5N7935,2
2017-09-12 13:00:0032,425,41013,8013,4NE26,5N7574,7
2017-09-12 12:00:0030,328,91014,2013,1NE32,1NE6703,6
2017-09-12 11:00:0028,033,91013,9011,1NE26,1NE5332,2
2017-09-12 10:00:0025,538,91013,5010,4NE22,4E3641,0
2017-09-12 09:00:0022,744,61013,0013,0NE24,9NE1880,2
2017-09-12 08:00:0020,948,21012,609,8NE23,7NE300,0
2017-09-12 07:00:0021,445,51012,007,8NE19,0NE00
2017-09-12 06:00:0021,744,61011,309,9NE25,3NE-10
2017-09-12 05:00:0022,441,8101107,3NE19,1NE-10
2017-09-12 04:00:0023,040,41010,909,7NE21,4NE-10
2017-09-12 03:00:0023,443,31010,8011,5NE25,6N-10
2017-09-12 02:00:0024,344,81010,809,4NE24,5N-10
2017-09-12 01:00:0025,144,11010,607,6NE19,7NE00
2017-09-12 00:00:0025,747,81010,405,8NE17,6NE-10
2017-09-11 23:00:0026,749,91010,2013,1NE31,0N-10
2017-09-11 22:00:0026,251,01009,6013,1N25,3N-10
2017-09-11 21:00:0025,254,91009,005,0NW11,9NW-10
2017-09-11 20:00:0026,950,51008,7010,3NW23,7NW70,0
2017-09-11 19:00:0028,943,91008,6016,7NW33,8NW350,1
2017-09-11 18:00:0033,134,41008,8018,9NW36,6NW3530,9
2017-09-11 17:00:0035,827,91009,3012,4NW32,6NW5552,3
2017-09-11 16:00:0035,829,21009,8010,3W27,8NW6713,7
2017-09-11 15:00:0034,925,61010,5012,2SW25,1SW7544,8
2017-09-11 14:00:0033,427,81011,509,4SW21,1S7715,2
2017-09-11 13:00:0032,724,91012,3011,9NE25,5NE7334,8
2017-09-11 12:00:0031,025,21012,809,8NE23,6N6533,7
2017-09-11 11:00:0028,832,21012,707,9E17,1N5202,2
2017-09-11 10:00:0024,942,31012,604,9E12,1NE3581,0
2017-09-11 09:00:0018,262,61012,703,2NE7,3E1780,2
2017-09-11 08:00:0015,269,71012,302,0NE11,0NE330,0
2017-09-11 07:00:0014,970,21011,901,6NE4,5NE-10
2017-09-11 06:00:0016,066,91011,702,6NE5,0NE-10
2017-09-11 05:00:0016,763,81011,604,2NE7,1E-10
2017-09-11 04:00:0017,061,61011,804,1NE8,0E00
2017-09-11 03:00:0017,659,51012,104,8NE12,5E00
2017-09-11 02:00:0017,065,61012,204,3N11,8N-10
2017-09-11 01:00:0017,565,01012,202,6NW10,6SW-10
2017-09-11 00:00:0018,262,31012,002,9W6,9SW00
2017-09-10 23:00:0019,059,41011,603,0W11,1NW00
2017-09-10 22:00:0020,154,81011,406,1NW13,0N-10
2017-09-10 21:00:0021,251,91010,909,4NW22,3NW00
2017-09-10 20:00:0022,747,61010,3011,6NW25,7NW90,0
2017-09-10 19:00:0024,144,51009,9013,1NW29,6NW330,1
2017-09-10 18:00:0026,539,11009,8016,2NW32,7NW3661,0
2017-09-10 17:00:0028,734,61010,1017,4NW40,8NW5712,4
2017-09-10 16:00:0030,428,11011,0012,9N29,7N6913,8
2017-09-10 15:00:0029,334,81011,908,9SW19,6W7744,9
2017-09-10 14:00:0027,036,51012,9011,1SW22,3SW7925,3
2017-09-10 13:00:0026,633,71013,605,4SW19,3SW7534,8
2017-09-10 12:00:0024,436,41014,006,4NE15,0N6703,7
2017-09-10 11:00:0023,140,61014,106,4NE14,9E5322,2
2017-09-10 10:00:0021,544,91014,005,8N14,4NE3651,0
2017-09-10 09:00:0017,661,51014,004,0N9,4N1900,2
2017-09-10 08:00:0015,869,01013,503,7W10,4SW330,0
2017-09-10 07:00:0015,772,91013,205,4W11,9W00
2017-09-10 06:00:0015,874,31013,204,7SW15,0W00
2017-09-10 05:00:0016,472,71013,105,8S13,8SW00
2017-09-10 04:00:0017,170,31012,809,5N38,8N-10
2017-09-10 03:00:0017,175,11012,5019,4N35,8N00
2017-09-10 02:00:0017,277,71013,0016,5NW32,6NW00
2017-09-10 01:00:0017,673,81013,1014,1NW26,7NW-10
2017-09-10 00:00:0018,071,11012,8013,0NW22,4N00
2017-09-09 23:00:0018,369,01012,3011,9NW28,2N00
2017-09-09 22:00:0018,668,61011,7012,6NW28,9N-10
2017-09-09 21:00:0019,168,01010,5016,5NW36,8NW00
2017-09-09 20:00:0020,066,01010,1018,9NW42,4NW140,0
2017-09-09 19:00:0021,459,81009,6025,5NW44,6NW460,1
2017-09-09 18:00:0023,750,71009,5025,4NW52,4NW3741,0
2017-09-09 17:00:0025,544,51009,7026,8NW54,3N5572,3
2017-09-09 16:00:0026,641,81010,0028,0NW54,3NW6753,8
2017-09-09 15:00:0027,343,91010,3020,9NW44,7NW7574,8
2017-09-09 14:00:0026,549,51010,6017,2NW36,4N7104,7
2017-09-09 13:00:0025,251,91011,2012,8NW29,4N6133,8
2017-09-09 12:00:0024,255,21011,4013,3NW29,5NW4252,3
2017-09-09 11:00:0023,955,01011,6010,5NW30,8NW4391,8
2017-09-09 10:00:0022,260,01011,805,0NW14,6N3450,8
2017-09-09 09:00:0018,771,81011,904,8NW13,7N1570,1
2017-09-09 08:00:0016,578,71011,804,8N12,8NW290,0
2017-09-09 07:00:0016,280,71011,403,4SW10,8W-10
2017-09-09 06:00:0016,478,11011,104,4W13,1SW00
2017-09-09 05:00:0016,473,21010,805,1NW12,1NW-10
2017-09-09 04:00:0016,866,31010,605,4NW15,0N00
2017-09-09 03:00:0016,861,01010,803,2NW9,7W00
2017-09-09 02:00:0017,260,11011,103,2N10,5N00
2017-09-09 01:00:0017,667,71010,605,5NW17,0W00
2017-09-09 00:00:0018,955,21010,204,3NW11,9N00
2017-09-08 23:00:0019,256,21010,002,1W6,6NW-10
2017-09-08 22:00:0020,456,81009,506,3NW19,2NW-10
2017-09-08 21:00:0021,648,51008,9012,3NW26,0NW-10
2017-09-08 20:00:0023,941,51008,3014,5NW31,4NW170,0
2017-09-08 19:00:0027,630,81008,2015,7NW31,9NW520,1
2017-09-08 18:00:0032,120,81008,4016,1NW34,9NW3940,8
2017-09-08 17:00:0035,318,11008,9014,4NW29,3NW5662,0
2017-09-08 16:00:0035,724,51009,3010,3W25,6N6843,3
2017-09-08 15:00:0032,630,81009,8013,0SW22,9SW7694,3
2017-09-08 14:00:0031,630,21010,4011,4SW19,0S7864,6
2017-09-08 13:00:0031,431,41011,0010,4S19,0SW7454,1
2017-09-08 12:00:0030,829,71011,307,3S15,4SW6593,1
2017-09-08 11:00:0028,930,11011,403,5E7,9E5201,9
2017-09-08 10:00:0024,739,31011,103,7SE7,7SE3510,8
2017-09-08 09:00:0019,360,71011,002,1SE5,5SE1750,2
2017-09-08 08:00:0015,966,61010,301,2SW2,9S270,0
2017-09-08 07:00:0016,170,31009,901,7S4,3N00
2017-09-08 06:00:0016,774,61009,802,5NE5,6N00
2017-09-08 05:00:0017,281,91009,701,6N5,3NE00
2017-09-08 04:00:0017,784,01009,800,4E1,9SE-10
2017-09-08 03:00:0018,380,51010,100,6E2,5SE00
2017-09-08 02:00:0019,277,11010,300,8NE6,0NW-10
2017-09-08 01:00:0020,075,21010,201,7NW8,2N-10
2017-09-08 00:00:0021,071,91010,501,2N3,1NW-10
2017-09-07 23:00:0021,967,81010,701,0NE2,9NE-10
2017-09-07 22:00:0023,261,11010,302,2NE6,0SE-10
2017-09-07 21:00:0024,457,81009,704,5E8,7E00
2017-09-07 20:00:0025,360,21009,404,5SE9,1SE170,0
2017-09-07 19:00:0026,656,51009,106,0S15,4SE460,2
2017-09-07 18:00:0029,647,41009,4010,0SW22,4SW3760,9
2017-09-07 17:00:0031,544,21009,9010,9SW23,6SW5372,0
2017-09-07 16:00:0031,645,51010,5012,1SW21,3S6643,3
2017-09-07 15:00:0031,346,81011,1011,1SW21,7SW7494,2
2017-09-07 14:00:0030,646,71011,5010,2S21,8S7724,7
2017-09-07 13:00:0031,242,81012,0010,5S19,1S7344,3
2017-09-07 12:00:0030,742,21012,409,7S20,8S6483,3
2017-09-07 11:00:0030,141,91012,505,6SE12,0S5092,0
2017-09-07 10:00:0026,150,91012,103,0E7,1NE3430,9
2017-09-07 09:00:0021,163,71011,801,7NE6,4E1730,2
2017-09-07 08:00:0018,671,21011,500,9N3,1NW300,0
2017-09-07 07:00:0018,571,21011,101,0N3,9N00
2017-09-07 06:00:0018,869,61010,900,5NW2,1NW-10
2017-09-07 05:00:0019,467,61010,901,8NW8,6NW-10
2017-09-07 04:00:0020,167,51011,102,8W5,8SW-10
2017-09-07 03:00:0021,063,11011,102,8W9,5SE-10
2017-09-07 02:00:0021,463,51011,304,0N8,0N00
2017-09-07 01:00:0021,565,31011,804,6N9,2N00
2017-09-07 00:00:0022,464,11012,002,5NW5,7NW-10
2017-09-06 23:00:0023,459,21011,901,6W13,3W00
2017-09-06 22:00:0024,555,01011,503,6NW6,3W-10
2017-09-06 21:00:0025,652,61010,905,4NW14,7W00
2017-09-06 20:00:0028,146,61010,607,8NW18,6NW110,0
2017-09-06 19:00:0030,640,91010,7010,2W21,3W300,2
2017-09-06 18:00:0034,432,51011,408,8W21,9NW4091,1
2017-09-06 17:00:0036,027,81012,0010,7W24,4NW5722,5
2017-09-06 16:00:0037,528,91012,8011,5SW26,6W6864,0
2017-09-06 15:00:0037,529,81013,6011,0SW21,2W7685,1
2017-09-06 14:00:0034,833,61014,209,6SW19,3SW7865,5
2017-09-06 13:00:0034,233,31015,008,8SW15,8SW7475,0
2017-09-06 12:00:0032,036,91015,705,7S11,7S6623,8
2017-09-06 11:00:0030,041,41016,004,8SE11,7SE5282,3
2017-09-06 10:00:0026,649,51016,005,3E10,4E3631,1
2017-09-06 09:00:0021,163,51016,001,6N5,0E1890,2
2017-09-06 08:00:0018,374,51016,002,8E5,0E360,0
2017-09-06 07:00:0018,375,01015,702,6NE6,1NE00
2017-09-06 06:00:0018,674,81015,403,5NE14,1E-10
2017-09-06 05:00:0018,576,41015,303,1NE6,0E-10
2017-09-06 04:00:0018,978,01015,402,1N4,3N00
2017-09-06 03:00:0019,575,31015,504,1N7,3N00
2017-09-06 02:00:0019,971,21016,002,6N9,7N-10
2017-09-06 01:00:0020,467,61016,004,1N6,9N00
2017-09-06 00:00:0021,065,91016,102,3N10,9E-10
2017-09-05 23:00:0021,764,21015,903,2NW5,8NW-10
2017-09-05 22:00:0022,861,61015,403,2NW7,7NW00
2017-09-05 21:00:0024,059,31014,705,1NW12,8NW00
2017-09-05 20:00:0025,656,61014,208,8W21,4NW110,0
2017-09-05 19:00:0027,651,71014,308,6W21,7W270,2
2017-09-05 18:00:0031,641,51014,508,9W19,1SW4241,2
2017-09-05 17:00:0033,038,21015,0010,5SW20,5SW5882,6
2017-09-05 16:00:0031,440,61015,6011,4SW22,6SW7034,0
2017-09-05 15:00:0030,344,11016,1012,5S21,4S7865,1
2017-09-05 14:00:0030,544,41016,4011,8SW22,8SW8015,5
2017-09-05 13:00:0029,843,11017,006,2E15,1SE7595,0
2017-09-05 12:00:0027,051,31017,405,6E13,2E6723,9
2017-09-05 11:00:0025,556,31017,206,9E17,4E5372,4
2017-09-05 10:00:0022,766,81016,907,2N13,5N3711,1
2017-09-05 09:00:0018,284,41016,805,5N11,8N1970,2
2017-09-05 08:00:0016,390,41016,405,2NW12,6N400,0
2017-09-05 07:00:0016,590,61016,104,1E10,5E-10
2017-09-05 06:00:0016,890,11015,602,9S11,8S00
2017-09-05 05:00:0016,988,41015,201,6SW5,0SW00
2017-09-05 04:00:0017,883,81015,003,1NW10,7NW-10
2017-09-05 03:00:0018,380,91015,207,1NW14,6NW00
2017-09-05 02:00:0018,281,91015,405,2NW12,0NW00
2017-09-05 01:00:0018,978,71015,406,2NW16,6NW00
2017-09-05 00:00:0019,873,41015,1010,2NW24,1NW00
2017-09-04 23:00:0020,169,91014,808,4NW18,4NW-10
2017-09-04 22:00:0020,469,11013,906,1NW13,3NW-10
2017-09-04 21:00:0021,367,21013,008,1NW22,9NW00
2017-09-04 20:00:0022,763,81012,5013,4NW33,5NW110,0
2017-09-04 19:00:0024,658,11012,3016,0NW37,1NW260,2
2017-09-04 18:00:0027,748,51012,4017,6NW41,5N4371,2
2017-09-04 17:00:0029,247,31012,6021,0NW39,2NW6002,7
2017-09-04 16:00:0030,843,91013,2018,2NW38,7NW7124,1
2017-09-04 15:00:0030,646,41013,8017,3NW37,3NW7925,3
2017-09-04 14:00:0030,249,71014,2013,3NW29,5NW7565,4
2017-09-04 13:00:0029,052,61014,9011,9N24,5N7495,0
2017-09-04 12:00:0026,856,91015,207,5E22,8N5733,6
2017-09-04 11:00:0025,659,51015,105,5SE12,8SE5332,4
2017-09-04 10:00:0023,464,11014,602,8SE7,1E3661,1
2017-09-04 09:00:0019,674,41014,603,6E8,4E1940,2
2017-09-04 08:00:0016,972,81014,001,8W11,9W390,0
2017-09-04 07:00:0016,674,31013,401,2SE4,4SW-10
2017-09-04 06:00:0016,976,21012,601,9SW5,0W00
2017-09-04 05:00:0017,571,61012,601,5E5,7E00
2017-09-04 04:00:0017,770,81012,502,4SW6,8SW00
2017-09-04 03:00:0017,771,01012,402,2SW13,9S-10
2017-09-04 02:00:0018,167,31012,201,2SW5,6SW00
2017-09-04 01:00:0018,665,21012,102,7NW9,1NW-10
2017-09-04 00:00:0019,157,31012,003,2NW8,3W-10
2017-09-03 23:00:0019,649,21011,602,8NW7,9NW-10
2017-09-03 22:00:0020,940,71011,004,5NW13,4NW-10
2017-09-03 21:00:0022,736,01010,209,1NW21,0NW00
2017-09-03 20:00:0025,031,51009,7012,1NW26,0NW110,0
2017-09-03 19:00:0027,126,61009,7013,6NW31,1NW300,2
2017-09-03 18:00:0030,325,91010,0014,5NW31,6NW4571,2
2017-09-03 17:00:0032,126,41010,6012,8W27,6NW5792,5
2017-09-03 16:00:0033,229,41011,2011,4W25,0NW6763,8
2017-09-03 15:00:0031,435,21012,0013,2SW22,6SW7704,9
2017-09-03 14:00:0031,233,41012,6012,1SW21,9SW8005,2
2017-09-03 13:00:0031,232,91013,2010,8SW19,7SW7584,7
2017-09-03 12:00:0030,728,11013,406,6S16,4S6763,6
2017-09-03 11:00:0029,233,51013,704,2SE7,9S5372,2
2017-09-03 10:00:0024,844,11013,502,3NE6,0NE3581,0
2017-09-03 09:00:0020,059,01013,303,0E7,6NE1860,2
2017-09-03 08:00:0018,263,01013,204,0E10,0NE340,0
2017-09-03 07:00:0017,879,01012,802,6N6,9E-10
2017-09-03 06:00:0018,477,31012,701,8E6,0S-10
2017-09-03 05:00:0018,571,21012,501,6SE10,5E00
2017-09-03 04:00:0019,069,31012,400,5NE1,8NE-10
2017-09-03 03:00:0019,867,21012,901,6S3,7SW00
2017-09-03 02:00:0020,562,31013,101,7N4,6NW-10
2017-09-03 01:00:0021,356,61013,502,2NE4,7NE-10
2017-09-03 00:00:0022,243,41013,602,9E6,4SE-10
2017-09-02 23:00:0023,834,71012,904,0N13,4NW00
2017-09-02 22:00:0025,144,31012,309,7NW23,4NW00
2017-09-02 21:00:0026,057,01011,8011,5NW30,4NW00
2017-09-02 20:00:0028,052,21011,5010,0NW21,4NW180,0
2017-09-02 19:00:0029,057,61011,708,3SW19,8SW490,2
2017-09-02 18:00:0031,752,11012,208,7SW16,0SW3891,1
2017-09-02 17:00:0032,450,11012,4010,4S21,0S5562,3
2017-09-02 16:00:0032,250,51012,8011,1S21,0SW6773,7
2017-09-02 15:00:0031,851,71013,2013,3S28,7SE7594,6
2017-09-02 14:00:0032,349,51013,7013,5S24,1SE7794,9
2017-09-02 13:00:0032,746,21014,1012,7S26,5S7364,4
2017-09-02 12:00:0031,547,21014,608,6S18,7S6453,4
2017-09-02 11:00:0030,142,71014,505,0E11,7SE5142,1
2017-09-02 10:00:0027,142,31014,102,6E6,9E3481,0
2017-09-02 09:00:0021,754,11013,702,5E7,2E1790,2
2017-09-02 08:00:0019,959,51013,003,2E7,5E370,0
2017-09-02 07:00:0020,655,41012,503,4E14,7E00
2017-09-02 06:00:0021,351,81012,103,9NE8,5NE-10
2017-09-02 05:00:0022,847,41012,006,6E16,0E-10
2017-09-02 04:00:0022,643,61011,605,8E14,5SE00
2017-09-02 03:00:0022,241,91011,402,6N6,5N-10
2017-09-02 02:00:0024,435,61011,602,4N12,3N-10
2017-09-02 01:00:0024,539,21011,604,0NE18,2NE-10
2017-09-02 00:00:0024,941,81011,403,1N16,8N00
2017-09-01 23:00:0026,836,01011,308,0N18,3N00
2017-09-01 22:00:0026,637,81010,906,6N16,6N-10
2017-09-01 21:00:0027,339,21009,907,7N16,7N00
2017-09-01 20:00:0028,540,21009,308,6NW22,1NW170,0
2017-09-01 19:00:0030,236,71009,4013,3NW28,8NW430,2
2017-09-01 18:00:0033,432,91009,7011,0W26,3W4071,1
2017-09-01 17:00:0031,444,51009,9014,6SW29,5SW5672,4
2017-09-01 16:00:0031,547,71010,6014,1SW24,3SW6853,8
2017-09-01 15:00:0031,647,41011,3011,1SW22,6SW7705,0
2017-09-01 14:00:0031,445,81011,7011,7S24,5S7915,4
2017-09-01 13:00:0030,448,11012,1012,6S22,9SE7504,9
2017-09-01 12:00:0030,443,11012,6010,2S23,3SE6663,7
2017-09-01 11:00:0029,740,01012,707,0E12,7E5312,3
2017-09-01 10:00:0026,847,21012,205,3E10,2E3621,1
2017-09-01 09:00:0023,056,61011,804,5SE11,2E1880,2
2017-09-01 08:00:0021,756,41011,104,0E11,8S390,0
2017-09-01 07:00:0022,550,71010,706,3NE13,6NE00
2017-09-01 06:00:0023,348,01010,607,1NE14,8NE-10
2017-09-01 05:00:0023,846,61010,7010,0NE23,9NE-10
2017-09-01 04:00:0023,049,91010,807,5N19,1N-10
2017-09-01 03:00:0022,949,51011,107,1NE16,8NE-10
2017-09-01 02:00:0022,949,11011,408,1NE16,9NE-10
2017-09-01 01:00:0021,461,21011,404,5NE11,1NE-10
2017-09-01 00:00:0021,762,41011,204,7N10,6N00
2017-08-31 23:00:0022,361,51010,904,5NW9,6NW00
2017-08-31 22:00:0023,259,71010,505,1NW10,3W-10
2017-08-31 21:00:0024,157,71009,906,6NW16,1W00
2017-08-31 20:00:0025,554,21009,4011,6NW25,2NW170,0
2017-08-31 19:00:0027,349,21009,1015,6NW34,3NW460,2
2017-08-31 18:00:0030,840,31009,4015,8W37,0NW4261,2
2017-08-31 17:00:0033,134,21009,7012,6W29,6W5952,6
2017-08-31 16:00:0034,332,91010,3011,4W25,2W7134,1
2017-08-31 15:00:0033,632,31011,0012,7SW21,7SW7925,1
2017-08-31 14:00:0032,535,21011,6011,0SW19,6SW8105,5
2017-08-31 13:00:0031,835,41012,307,1SW15,3SW7654,9
2017-08-31 12:00:0028,641,21013,106,7SE13,6SE6753,7
2017-08-31 11:00:0026,946,81013,106,8E15,1E5362,3
2017-08-31 10:00:0024,154,31013,207,5N16,0N3661,1
2017-08-31 09:00:0020,168,31013,105,7NE18,4NE1920,2
2017-08-31 08:00:0017,880,11012,803,4NE8,4N420,0
2017-08-31 07:00:0018,379,51012,203,0NE7,7NE00
2017-08-31 06:00:0019,077,11011,806,1NE15,5NE-10
2017-08-31 05:00:0018,979,31011,804,5E10,3NE00
2017-08-31 04:00:0018,381,71011,903,0NE12,0E-10
2017-08-31 03:00:0018,380,71011,703,0N7,1N00
2017-08-31 02:00:0018,877,31011,802,2NW5,7N00
2017-08-31 01:00:0019,474,31011,900,8NW3,4NW-10
2017-08-31 00:00:0019,974,11011,702,5NW7,0NW00
2017-08-30 23:00:0020,672,11011,704,2NW10,8NW-10
2017-08-30 22:00:0021,270,91011,407,0NW19,8NW00
2017-08-30 21:00:0022,762,71010,7011,3NW25,0NW00
2017-08-30 20:00:0024,354,31010,3011,0NW28,8N170,0
2017-08-30 19:00:0025,751,61010,1014,8NW30,8NW520,3
2017-08-30 18:00:0028,746,41010,1013,2NW29,8NW4161,2
2017-08-30 17:00:0028,255,21010,5012,3S26,7W5782,6
2017-08-30 16:00:0028,255,21011,2013,6S26,9S6954,1
2017-08-30 15:00:0028,749,61011,7014,1S28,2SW7865,2
2017-08-30 14:00:0028,153,31012,1014,2SW24,6SW8015,4
2017-08-30 13:00:0028,648,41012,4010,1S20,2S7644,9
2017-08-30 12:00:0026,852,61012,905,7SE12,5SE6713,7
2017-08-30 11:00:0025,856,51013,106,9E15,7SE5332,3
2017-08-30 10:00:0023,168,81013,304,5NE9,6SE3651,1
2017-08-30 09:00:0018,387,31013,104,9N9,1N1950,2
2017-08-30 08:00:0016,093,21012,802,5NE7,1N450,0
2017-08-30 07:00:0015,892,51012,003,9N9,0NW00
2017-08-30 06:00:0016,291,61011,702,9NE9,2N00
2017-08-30 05:00:0016,690,41011,602,5E6,9E-10
2017-08-30 04:00:0017,288,81011,601,5W7,8NW-10
2017-08-30 03:00:0017,786,81011,501,1NW4,0W00
2017-08-30 02:00:0018,283,61011,303,0W7,2W-10
2017-08-30 01:00:0018,880,41011,204,4SE9,6E-10
2017-08-30 00:00:0019,678,11010,606,8N18,2NW00
2017-08-29 23:00:0019,777,41010,607,3NW16,8N00
2017-08-29 22:00:0020,076,41010,407,1NW13,9NW00
2017-08-29 21:00:0020,773,71009,7010,6NW26,4NW00
2017-08-29 20:00:0021,767,71009,3015,3NW35,2NW170,0
2017-08-29 19:00:0022,962,21009,1015,3NW31,3NW530,2
2017-08-29 18:00:0025,552,91009,2013,7NW30,8N4201,1
2017-08-29 17:00:0025,650,81009,3013,4NW27,8NW3441,5
2017-08-29 16:00:0024,852,71009,3013,4NW26,8NW1490,8
2017-08-29 15:00:0027,148,31009,708,8W24,2W2591,6
2017-08-29 14:00:0027,153,31010,409,7S19,2S8405,2
2017-08-29 13:00:0023,565,81011,1010,8SW23,9SW3402,0
2017-08-29 12:00:0024,657,51011,609,3SW21,2SW3832,1
2017-08-29 11:00:0024,059,61011,803,8E11,2E5542,2
2017-08-29 10:00:0021,370,01012,005,8E11,4E3410,9
2017-08-29 09:00:0018,180,91012,105,0NE10,9NE2000,2
2017-08-29 08:00:0016,488,31011,503,8N13,8N480,0
2017-08-29 07:00:0016,089,31011,007,0NW16,4N00
2017-08-29 06:00:0016,387,61011,003,5N11,6W-10
2017-08-29 05:00:0016,886,71010,901,6NE7,5NE-10
2017-08-29 04:00:0017,086,61010,901,6N5,6NE-10
2017-08-29 03:00:0017,487,11010,601,5NW6,0NW-10
2017-08-29 02:00:0018,186,01010,803,3N7,7N-10
2017-08-29 01:00:0019,083,61011,004,9NW12,1NW-10
2017-08-29 00:00:0019,482,51010,906,7NW13,5NW-10
2017-08-28 23:00:0019,780,21010,807,3NW14,8NW-10
2017-08-28 22:00:0020,575,21010,306,8NW18,2NW00
2017-08-28 21:00:0021,370,21009,806,0NW15,1W10
2017-08-28 20:00:0022,767,21009,707,3W20,3W450,0
2017-08-28 19:00:0023,062,41009,609,1W21,5NW960,1
2017-08-28 18:00:0024,166,51009,5011,0W31,9W1690,6
2017-08-28 17:00:0025,262,91009,6014,1SW29,7SW3051,5
2017-08-28 16:00:0027,953,41009,8016,9SW31,0SW7183,9
2017-08-28 15:00:0027,354,61010,2016,4SW33,1SW7244,5
2017-08-28 14:00:0027,153,41010,5015,6SW36,0SW7334,7
2017-08-28 13:00:0026,554,91011,0015,8SW26,0SW7754,6
2017-08-28 12:00:0025,658,91011,5012,8SW23,6SW6513,5
2017-08-28 11:00:0025,159,71011,709,4SW18,3S5332,2
2017-08-28 10:00:0022,868,01011,204,2SW11,5SW3571,0
2017-08-28 09:00:0019,587,11010,504,0NW9,2N2040,2
2017-08-28 08:00:0017,794,61010,202,5NW8,6N510,0
2017-08-28 07:00:0017,993,81009,802,8NW11,9NW00
2017-08-28 06:00:0018,393,01009,803,0N8,5E-10
2017-08-28 05:00:0018,591,71009,802,9NW11,9W00
2017-08-28 04:00:0018,991,11009,805,0NW12,7NW00
2017-08-28 03:00:0019,289,61009,903,2W7,6W-10
2017-08-28 02:00:0019,788,41010,102,9W7,7SW-10
2017-08-28 01:00:0019,687,91010,405,4W13,2W00
2017-08-28 00:00:0019,586,61010,303,6W9,2W-10
2017-08-27 23:00:0019,984,11010,005,0W13,6NW-10
2017-08-27 22:00:0020,480,21009,506,7NW18,2NW-10
2017-08-27 21:00:0021,471,91008,809,7NW21,6W10
2017-08-27 20:00:0022,960,61008,0012,3NW27,6NW140,0
2017-08-27 19:00:0024,553,31007,7013,4NW29,8W600,3
2017-08-27 18:00:0027,743,71008,0014,8W31,7W4621,4
2017-08-27 17:00:0028,942,51008,1014,6NW32,5NW6182,8
2017-08-27 16:00:0030,537,91008,5013,3W33,5NW7414,2
2017-08-27 15:00:0031,136,91008,9012,2W28,2W8095,3
2017-08-27 14:00:0030,537,41009,2010,2W24,1W8275,6
2017-08-27 13:00:0029,739,71009,509,2W21,5SW7845,0
2017-08-27 12:00:0027,744,41009,608,9W19,6NW6973,8
2017-08-27 11:00:0026,555,71009,707,9NW19,0NW5432,3
2017-08-27 10:00:0024,565,21009,409,6NW23,2NW3621,1
2017-08-27 09:00:0021,080,01009,209,3NW19,7NW1760,2
2017-08-27 08:00:0019,782,31009,007,7NW17,8NW150,0
2017-08-27 07:00:0019,974,61008,304,2NW10,6NW00
2017-08-27 06:00:0019,974,81008,201,2SW5,3W-10
2017-08-27 05:00:0020,474,01007,801,8NW4,7NW00
2017-08-27 04:00:0020,475,21008,201,4N5,2NE-10
2017-08-27 03:00:0021,169,71008,601,9S8,2SE-10
2017-08-27 02:00:0021,860,31008,302,4S13,1NW-10
2017-08-27 01:00:0021,957,91008,201,4W4,3W00
2017-08-27 00:00:0021,957,81007,901,7NW8,4W-10
2017-08-26 23:00:0022,851,61007,105,9NW19,6NW-10
2017-08-26 22:00:0024,140,11006,607,2NW18,0NW00
2017-08-26 21:00:0025,437,01006,305,0NW14,5W10
2017-08-26 20:00:0026,935,01006,206,9NW18,6NW310,0
2017-08-26 19:00:0027,056,91006,706,5SW16,5S1020,2
2017-08-26 18:00:0030,446,71007,1011,4S23,3S3481,2
2017-08-26 17:00:0033,136,31007,6012,7S21,5S5952,7
2017-08-26 16:00:0034,529,41007,707,1SW19,4SW7264,2
2017-08-26 15:00:0033,826,21009,009,2SW19,6W7194,7
2017-08-26 14:00:0032,430,81009,009,1SW26,8SW7585,2
2017-08-26 13:00:0029,839,91009,307,5SW25,5SW6944,5
2017-08-26 12:00:0027,054,01009,408,9SW26,2SW3052,2
2017-08-26 11:00:0025,645,61008,808,4SW27,1W1220,6
2017-08-26 10:00:0024,441,81008,305,0NE16,3N760,2
2017-08-26 09:00:0023,641,11008,605,7E16,0S260,0
2017-08-26 08:00:0022,841,41008,208,1NE26,5E110
2017-08-26 07:00:0022,740,01009,005,2E16,8E00
2017-08-26 06:00:0022,234,91009,005,1N22,7S-10
2017-08-26 05:00:0021,732,61009,306,0N15,9N00
2017-08-26 04:00:0021,332,31009,102,5W6,9NW00
2017-08-26 03:00:0021,335,81008,903,8N9,6NE00
2017-08-26 02:00:0021,637,91009,502,3NE9,8NE-10
2017-08-26 01:00:0021,439,41009,602,2NE9,2SE00
2017-08-26 00:00:0022,442,71009,503,3NE8,5NE00
2017-08-25 23:00:0022,541,71009,304,9NE8,8E-10
2017-08-25 22:00:0023,237,81008,702,9NW8,6NW-10
2017-08-25 21:00:0025,632,91008,105,6W12,3NW00
2017-08-25 20:00:0028,625,41008,006,6NW14,1W300,0
2017-08-25 19:00:0030,129,91008,606,9W14,4SW990,3
2017-08-25 18:00:0031,730,71009,2011,3SW21,5SW3421,2
2017-08-25 17:00:0031,438,71009,4012,3SW22,4SW5462,5
2017-08-25 16:00:0031,932,91009,7012,6SW22,0S6823,9
2017-08-25 15:00:0032,132,81010,009,9SW24,1SW7144,7
2017-08-25 14:00:0031,733,31010,609,4S20,4S7635,2
2017-08-25 13:00:0030,736,91010,908,2SW15,3SW7284,7
2017-08-25 12:00:0030,234,71011,106,2S13,9S4732,9
2017-08-25 11:00:0029,037,11011,103,0SE7,3S4652,1
2017-08-25 10:00:0026,142,61011,003,6E8,0NE3281,0
2017-08-25 09:00:0021,552,41010,804,6N9,8N1200,2
2017-08-25 08:00:0019,756,51010,504,5NW9,6N210,0
2017-08-25 07:00:0019,958,31010,503,0N6,7N00
2017-08-25 06:00:0019,257,01010,402,7NE10,8NE-10
2017-08-25 05:00:0019,354,11010,203,2N6,6N-10
2017-08-25 04:00:0019,853,31010,501,6N4,0NW00
2017-08-25 03:00:0020,349,01010,402,6N4,8NW00
2017-08-25 02:00:0020,644,11010,701,7N4,1N-10
2017-08-25 01:00:0021,141,01010,801,9NW4,5N00
2017-08-25 00:00:0022,339,21010,602,4NW6,6NW-10
2017-08-24 23:00:0023,136,81010,302,8NW7,0N-10
2017-08-24 22:00:0024,334,21009,905,2NW12,2NW-10
2017-08-24 21:00:0025,137,71009,508,8NW23,2NW10
2017-08-24 20:00:0026,941,41009,3012,0NW30,3NW350,0
2017-08-24 19:00:0030,035,51009,4010,2NW22,6NW1420,3
2017-08-24 18:00:0033,330,31009,8010,8W23,0NW3231,2
2017-08-24 17:00:0035,230,71010,3013,0SW26,3SW5862,7
2017-08-24 16:00:0036,527,61010,7012,1SW24,0S7164,2
2017-08-24 15:00:0034,234,51010,909,3SW16,9SW6714,6
2017-08-24 14:00:0033,335,71011,5012,4SW23,0SW7995,5
2017-08-24 13:00:0033,232,91011,709,1S18,2S6324,3
2017-08-24 12:00:0032,030,31012,307,4NE14,0NE7264,0
2017-08-24 11:00:0029,037,61012,5010,5N18,6N5172,3
2017-08-24 10:00:0025,351,81012,305,1N10,9N3561,1
2017-08-24 09:00:0021,366,41012,305,0NE12,2E2230,3
2017-08-24 08:00:0018,870,91012,002,4NE8,3E480,0
2017-08-24 07:00:0017,873,01011,302,0NE7,2N10
2017-08-24 06:00:0018,272,51010,602,4NW6,6W-10
2017-08-24 05:00:0018,969,81010,601,3NE5,7NE-10
2017-08-24 04:00:0019,265,71010,501,3W3,5NW00
2017-08-24 03:00:0019,862,81010,701,1W3,8SW00
2017-08-24 02:00:0020,463,21010,802,1N3,6S-10
2017-08-24 01:00:0021,459,71010,900,6N2,4N-10
2017-08-24 00:00:0022,055,01010,801,6E4,0NW-10
2017-08-23 23:00:0022,849,91010,101,2NW9,4NW00
2017-08-23 22:00:0024,048,51009,605,3NW15,1NW-10
2017-08-23 21:00:0025,947,51009,307,9NW17,3W10
2017-08-23 20:00:0028,742,71009,209,4NW30,8NW310,0
2017-08-23 19:00:0030,838,61009,4010,1NW23,0NW1190,3
2017-08-23 18:00:0032,843,11009,708,7W21,2W3731,3
2017-08-23 17:00:0032,444,01010,0012,4SW21,2SW5912,8
2017-08-23 16:00:0032,843,31010,5011,1SW19,7SW6984,2
2017-08-23 15:00:0032,645,81011,109,9SW18,2SW7645,2
2017-08-23 14:00:0032,645,41011,409,6S19,1S7575,4
2017-08-23 13:00:0032,146,11011,8010,1S18,5S7204,9
2017-08-23 12:00:0031,845,91012,0010,2S16,8S6483,7
2017-08-23 11:00:0030,747,81011,806,4SE14,8S5142,4
2017-08-23 10:00:0027,357,11011,703,1NE7,4NE3601,1
2017-08-23 09:00:0021,474,31011,403,1N7,0N1940,3
2017-08-23 08:00:0018,883,71010,902,1NW12,2NW490,0
2017-08-23 07:00:0018,683,71010,301,9NW10,1N00
2017-08-23 06:00:0019,781,01010,101,9NW12,8NW00
2017-08-23 05:00:0020,478,21010,203,3W8,9W00
2017-08-23 04:00:0020,477,61010,501,2SE3,2E-10
2017-08-23 03:00:0020,975,71010,702,5NE6,3NE-10
2017-08-23 02:00:0021,475,71010,703,9NE8,3E00
2017-08-23 01:00:0021,876,11010,805,0NE12,6N-10
2017-08-23 00:00:0021,678,81010,603,6NW7,9NW-10
2017-08-22 23:00:0022,575,81010,403,1NW7,3NW-10
2017-08-22 22:00:0023,470,41010,104,8NW20,6NW-10
2017-08-22 21:00:0024,367,51009,507,7NW18,0W10
2017-08-22 20:00:0027,159,91009,4011,3NW26,3W190,0
2017-08-22 19:00:0030,053,51009,3010,3W25,5NW890,4
2017-08-22 18:00:0031,751,61009,909,6SW20,4SW4751,6
2017-08-22 17:00:0031,349,01010,5010,3SW20,1SW6323,0
2017-08-22 16:00:0032,046,21011,3012,5SW22,0SW7524,5
2017-08-22 15:00:0032,541,01011,9010,2S19,9S8155,5
2017-08-22 14:00:0031,543,71012,6010,8S19,1S8305,8
2017-08-22 13:00:0031,245,91013,109,4SW17,4SW7845,3
2017-08-22 12:00:0029,850,71013,608,3S18,1SW6884,0
2017-08-22 11:00:0027,564,91013,604,5E13,0SE5482,6
2017-08-22 10:00:0023,187,41013,204,0NW11,7NW3081,0
2017-08-22 09:00:0021,494,91012,904,9N9,9W990,1
2017-08-22 08:00:0020,996,61012,602,5NE5,6NE280,0
2017-08-22 07:00:0020,997,01012,002,6N6,1N00
2017-08-22 06:00:0021,097,21011,902,6SW7,3NW-10
2017-08-22 05:00:0020,997,21011,702,8NW6,6N00
2017-08-22 04:00:0021,096,81011,900,7W10,6NW-10
2017-08-22 03:00:0021,596,11011,801,4SE7,7E-10
2017-08-22 02:00:0022,095,51011,802,7E7,3E-10
2017-08-22 01:00:0022,294,61011,401,6W7,7S-10
2017-08-22 00:00:0022,491,91011,303,1SW6,3SW00
2017-08-21 23:00:0023,287,51011,102,4SW7,5SW-10
2017-08-21 22:00:0024,183,11010,603,6SW7,6SW-10
2017-08-21 21:00:0025,178,21009,806,0SE10,3SE20
2017-08-21 20:00:0026,373,71009,506,9SE16,1SE250,0
2017-08-21 19:00:0027,569,81009,4010,3SE20,0SE1040,4
2017-08-21 18:00:0030,161,31009,7010,0SE21,3SE4541,6
2017-08-21 17:00:0030,161,61009,9013,4S28,7S6123,1
2017-08-21 16:00:0030,559,71010,4016,5S35,8SE7324,6
2017-08-21 15:00:0030,558,71011,1016,2SE34,1SE7945,6
2017-08-21 14:00:0030,755,71011,4015,8SE28,6SE8145,9
2017-08-21 13:00:0030,056,41011,8017,5SE41,9E7705,3
2017-08-21 12:00:0029,556,71012,0016,5SE29,7E6784,0
2017-08-21 11:00:0028,860,11012,1015,2SE29,5SE5392,5
2017-08-21 10:00:0027,565,91012,0011,5SE22,0SE3701,2
2017-08-21 09:00:0024,079,11011,606,4E14,1E1970,3
2017-08-21 08:00:0021,787,31011,302,7E7,3E500,0
2017-08-21 07:00:0021,388,71010,902,6E7,2NE00
2017-08-21 06:00:0021,787,91010,502,5E5,8E-10
2017-08-21 05:00:0022,286,11010,502,0E4,6NE-10
2017-08-21 04:00:0022,884,21010,902,5NE6,7E-10
2017-08-21 03:00:0023,382,81011,404,0E9,3E-10
2017-08-21 02:00:0023,881,91011,503,6E11,6E-10
2017-08-21 01:00:0024,579,71011,404,7E8,5SE-10
2017-08-21 00:00:0025,177,21011,305,8SE16,6S-10
2017-08-20 23:00:0025,674,21011,206,7SE12,8SE-10
2017-08-20 22:00:0026,071,61010,605,6SE10,7E-10
2017-08-20 21:00:0026,768,61009,805,8SE12,2S20
2017-08-20 20:00:0027,665,01009,508,0SE17,1SE300,0
2017-08-20 19:00:0028,760,71009,609,5S22,6SE1100,4
2017-08-20 18:00:0031,053,51009,9014,2S24,6SE4401,5
2017-08-20 17:00:0032,051,11010,3016,4S27,5S6033,0
2017-08-20 16:00:0033,447,41011,0012,3S23,4SE7234,5
2017-08-20 15:00:0033,247,61011,4013,3S22,5SE7865,6
2017-08-20 14:00:0032,848,01011,6013,5S25,3SE8065,9
2017-08-20 13:00:0031,751,41011,8012,0SE22,9S7565,3
2017-08-20 12:00:0030,655,11012,1012,5SE23,2SE6674,0
2017-08-20 11:00:0029,857,21012,0011,1SE20,1SE5312,5
2017-08-20 10:00:0028,060,11011,809,5SE20,4SE3661,2
2017-08-20 09:00:0024,658,31011,504,3E9,4E1990,3
2017-08-20 08:00:0022,761,51011,004,0E8,9E500,0
2017-08-20 07:00:0022,463,51010,204,7E9,5E00
2017-08-20 06:00:0022,961,91009,905,3E9,9NE-10
2017-08-20 05:00:0023,659,31009,705,1E9,9E-10
2017-08-20 04:00:0024,556,11009,703,5E9,7E-10
2017-08-20 03:00:0025,652,61009,705,4E12,6E00
2017-08-20 02:00:0025,453,11009,704,8SE10,7E-10
2017-08-20 01:00:0025,352,41009,602,7E8,8E-10
2017-08-20 00:00:0026,049,41009,403,1N7,5N-10
2017-08-19 23:00:0027,046,31009,401,7N5,6NW-10
2017-08-19 22:00:0028,443,01008,704,0N12,7NW00
2017-08-19 21:00:0029,941,21008,006,3NW15,9NW30
2017-08-19 20:00:0031,738,21007,608,6NW20,5NW200,0
2017-08-19 19:00:0033,435,81007,7010,4NW24,9NW960,5
2017-08-19 18:00:0037,330,11008,5011,5W22,9NW4821,7
2017-08-19 17:00:0039,026,31009,009,6W24,2NW6403,3
2017-08-19 16:00:0039,226,51009,5010,5W21,8NW7514,8
2017-08-19 15:00:0039,527,31009,809,4SW20,2NW8166,0
2017-08-19 14:00:0037,130,51010,208,4SW18,6SW8416,4
2017-08-19 13:00:0035,132,81010,708,1SW15,6SW7985,8
2017-08-19 12:00:0033,235,41011,107,7NE17,1E7094,5
2017-08-19 11:00:0031,538,01011,2010,6NE22,9NE5712,9
2017-08-19 10:00:0028,742,31010,9013,0NE28,1NE4031,4
2017-08-19 09:00:0025,848,31010,609,4NE20,0NE2250,4
2017-08-19 08:00:0024,251,01010,608,2NE18,6NE630,0
2017-08-19 07:00:0024,054,21010,207,9NE19,2NE00
2017-08-19 06:00:0024,254,81010,008,8NE19,0E-10
2017-08-19 05:00:0025,151,21010,1010,5NE23,8N-10
2017-08-19 04:00:0025,050,01010,4010,7NE21,1N-10
2017-08-19 03:00:0022,851,41010,606,9NE16,9N-10
2017-08-19 02:00:0022,359,41010,903,8N9,6NE-10
2017-08-19 01:00:0023,460,11010,803,8N9,5NE00
2017-08-19 00:00:0024,158,11010,405,3N16,0N-10
2017-08-18 23:00:0025,653,81010,107,8NW15,2NW00
2017-08-18 22:00:0026,949,11009,609,1NW19,2NW00
2017-08-18 21:00:0028,744,81009,2010,3NW22,5NW20
2017-08-18 20:00:0030,641,31008,9013,1NW28,1N150,0
2017-08-18 19:00:0032,936,41008,9016,1NW31,8NW940,5
2017-08-18 18:00:0037,828,51009,4015,3NW32,9NW5001,8
2017-08-18 17:00:0039,026,51009,6014,3NW30,1NW6533,4
2017-08-18 16:00:0039,027,31010,1011,1NW25,8W7635,0
2017-08-18 15:00:0036,530,31011,009,2SW18,7SW8256,2
2017-08-18 14:00:0034,832,11011,709,4S20,7SW8426,4
2017-08-18 13:00:0033,831,71012,108,2SW17,4SW7695,3
2017-08-18 12:00:0031,738,11012,309,0SW16,5SW6753,9
2017-08-18 11:00:0030,038,41012,407,8SW14,1SW5322,4
2017-08-18 10:00:0027,940,91012,205,4SE13,6E3591,1
2017-08-18 09:00:0023,749,11011,801,1E7,0SW2000,3
2017-08-18 08:00:0020,456,51011,402,4SW6,5W550,0
2017-08-18 07:00:0020,555,31011,002,6SW7,3SW00
2017-08-18 06:00:0022,947,31010,802,4NW8,9E00
2017-08-18 05:00:0025,338,31010,908,0NE15,7NE00
2017-08-18 04:00:0025,437,41010,909,2NE22,5NE-10
2017-08-18 03:00:0025,537,81011,106,5NE13,6E-10
2017-08-18 02:00:0026,434,71011,407,2NE16,5NE-10
2017-08-18 01:00:0025,148,31011,506,5NE13,1NE-10
2017-08-18 00:00:0024,069,01011,302,6NE9,2NW-10
2017-08-17 23:00:0024,368,21011,101,2NW4,2W-10
2017-08-17 22:00:0026,160,51010,502,5SW6,7W-10
2017-08-17 21:00:0028,350,81009,803,4SW13,1N20
2017-08-17 20:00:0030,442,11009,708,8N24,5NW220,0
2017-08-17 19:00:0032,638,71009,7011,4NW25,7W1010,4
2017-08-17 18:00:0036,832,71010,108,4NW19,7NW4381,3
2017-08-17 17:00:0036,634,61010,808,4SW19,8W5772,4
2017-08-17 16:00:0035,435,71011,4011,1SW22,4SW6853,6
2017-08-17 15:00:0034,533,81012,1013,5SW23,3SW7624,6
2017-08-17 14:00:0035,034,01012,7012,0SW21,4SW7965,2
2017-08-17 13:00:0034,334,01012,906,2S13,8SW7524,7
2017-08-17 12:00:0031,339,61013,208,0E15,0E6032,8
2017-08-17 11:00:0028,648,01013,306,3SE11,8SE4611,5
2017-08-17 10:00:0025,954,01013,005,9NE15,2NE2570,4
2017-08-17 09:00:0022,961,71012,807,3N16,4N1060,0
2017-08-17 08:00:0021,863,71012,806,9N14,2N210
2017-08-17 07:00:0022,460,21012,605,1NE13,4E00
2017-08-17 06:00:0023,056,71012,308,0NE17,8NE-10
2017-08-17 05:00:0023,653,71012,206,4NE13,6NE-10
2017-08-17 04:00:0022,354,71012,304,1NE12,5NE-10
2017-08-17 03:00:0024,346,51012,304,2N15,8NE00
2017-08-17 02:00:0025,243,11012,908,2NE16,2NE-10
2017-08-17 01:00:0023,849,61013,107,7NE19,3E-10
2017-08-17 00:00:0022,854,61013,001,3NW4,5NW-10
2017-08-16 23:00:0023,752,31012,903,1W9,1NW-10
2017-08-16 22:00:0024,750,31012,608,1NW21,4NW00
2017-08-16 21:00:0026,345,31012,2010,5NW20,5NW20
2017-08-16 20:00:0027,842,71011,7013,8NW30,2NW130,0
2017-08-16 19:00:0030,435,91011,7014,0NW27,7NW1030,6
2017-08-16 18:00:0034,729,81012,2013,8NW32,6NW5002,0
2017-08-16 17:00:0036,328,51012,5013,5NW31,3NW6563,7
2017-08-16 16:00:0036,029,31012,9014,8NW36,1NW7725,3
2017-08-16 15:00:0036,228,01013,5014,2NW31,0NW8356,4
2017-08-16 14:00:0034,928,41014,507,6W19,8W8606,7
2017-08-16 13:00:0033,628,01015,207,6SW16,1W8176,1
2017-08-16 12:00:0031,532,01015,907,2S17,6SE7154,6
2017-08-16 11:00:0030,035,31016,005,9SW15,1SW5642,9
2017-08-16 10:00:0027,140,61016,103,5NE10,4E3981,4
2017-08-16 09:00:0023,149,61016,104,7NE9,9NE2190,4
2017-08-16 08:00:0020,755,61015,503,3E11,0NE590,0
2017-08-16 07:00:0021,451,91014,906,8N19,2NE00
2017-08-16 06:00:0021,550,71014,604,7N15,1NE-10
2017-08-16 05:00:0022,148,91014,508,1NE17,2N-10
2017-08-16 04:00:0022,549,81014,406,0NE16,6N00
2017-08-16 03:00:0023,447,71014,6010,0NE20,8N-10
2017-08-16 02:00:0024,245,31014,808,8NE21,9NE-10
2017-08-16 01:00:0023,941,51014,507,5N17,4NE00
2017-08-16 00:00:0024,139,91014,004,0N11,2N-10
2017-08-15 23:00:0024,840,41013,605,5NW11,7N-10
2017-08-15 22:00:0025,641,21012,708,1NW17,8NW-10
2017-08-15 21:00:0026,939,31011,9013,3NW26,5NW40
2017-08-15 20:00:0029,329,51011,4012,3NW30,6NW410,0
2017-08-15 19:00:0031,723,31011,2015,1NW31,4NW1450,5
2017-08-15 18:00:0034,922,71011,4014,3NW28,5NW4541,6
2017-08-15 17:00:0037,423,61011,9012,1W26,0NW6183,1
2017-08-15 16:00:0036,228,21012,108,9W20,7SW7414,7
2017-08-15 15:00:0033,035,51012,7012,9SW28,6SW8015,7
2017-08-15 14:00:0032,633,91013,2013,9SW26,8SW8216,0
2017-08-15 13:00:0033,131,81013,909,0SW19,6SW7855,4
2017-08-15 12:00:0031,633,81014,204,8SE13,8SW6964,2
2017-08-15 11:00:0029,339,11014,205,4E15,5NE5572,6
2017-08-15 10:00:0025,550,81014,008,2NE18,9E3931,3
2017-08-15 09:00:0021,464,91013,905,7NE12,4NE2170,3
2017-08-15 08:00:0018,674,71013,605,5NE11,0N640,0
2017-08-15 07:00:0018,076,11013,004,3NE8,4E10
2017-08-15 06:00:0017,374,81012,602,5NE8,8E-10
2017-08-15 05:00:0017,776,61012,102,5NE5,6N00
2017-08-15 04:00:0018,275,21011,602,2N4,4N00
2017-08-15 03:00:0019,072,01011,301,1W7,1SE-10
2017-08-15 02:00:0019,470,91011,202,4SE10,0SE-10
2017-08-15 01:00:0019,669,21011,001,5NE8,8NE00
2017-08-15 00:00:0020,166,81010,702,0NW8,7NW00
2017-08-14 23:00:0021,361,71010,505,0W11,0W00
2017-08-14 22:00:0022,158,31009,703,9NW11,3N-10
2017-08-14 21:00:0023,953,21009,308,1W19,0W40
2017-08-14 20:00:0025,949,31009,1010,0NW23,6NW330,0
2017-08-14 19:00:0028,046,51009,0012,8NW27,8NW1200,4
2017-08-14 18:00:0031,840,11009,2011,1W23,3W4401,3
2017-08-14 17:00:0031,943,21009,4011,5SW20,6SW5842,5
2017-08-14 16:00:0032,540,41009,7012,2SW22,0SW7144,0
2017-08-14 15:00:0032,138,51009,9012,5SW21,5SW7895,2
2017-08-14 14:00:0031,638,61010,3012,9SW24,7SW8205,8
2017-08-14 13:00:0032,237,51010,4011,2SW21,7W7775,2
2017-08-14 12:00:0031,440,01010,6010,4SW19,0SW6854,0
2017-08-14 11:00:0030,641,81010,406,4W14,3SW5442,5
2017-08-14 10:00:0027,152,81010,005,1NW11,6NW3751,1
2017-08-14 09:00:0022,467,81010,002,0NE8,4NE1970,3
2017-08-14 08:00:0019,574,21009,801,7N11,0N530,0
2017-08-14 07:00:0018,971,41009,801,0NE5,2NE10
2017-08-14 06:00:0018,967,21009,701,8NE6,0NE-10
2017-08-14 05:00:0019,465,21009,603,2N9,5N-10
2017-08-14 04:00:0020,065,11009,503,6NE8,3E-10
2017-08-14 03:00:0020,266,41009,403,2E8,2E00
2017-08-14 02:00:0020,767,01009,403,6E8,5E-10
2017-08-14 01:00:0021,366,71009,605,8E12,5E00
2017-08-14 00:00:0021,359,21009,502,2N7,9NE-10
2017-08-13 23:00:0022,554,81009,403,5W10,6W00
2017-08-13 22:00:0023,259,01009,009,5NW21,8NW-10
2017-08-13 21:00:0024,956,11008,4010,6NW23,9NW50
2017-08-13 20:00:0027,249,31008,0011,6W23,8NW350,0
2017-08-13 19:00:0029,047,51008,4010,1SW20,7SW1230,4
2017-08-13 18:00:0031,842,91009,109,2SW19,6SW4661,6
2017-08-13 17:00:0031,941,21009,608,9SW19,7S6323,1
2017-08-13 16:00:0031,438,91009,708,4S19,6SW7514,7
2017-08-13 15:00:0031,235,31010,2010,5S21,6SW8125,6
2017-08-13 14:00:0030,934,91010,4012,5S24,5SE8135,3
2017-08-13 13:00:0031,434,01010,9012,0S22,5S7494,3
2017-08-13 12:00:0030,837,11011,207,8SE15,1S6262,8
2017-08-13 11:00:0028,842,21011,204,4E10,8SE5182,0
2017-08-13 10:00:0026,351,61011,402,4E6,5E3671,0
2017-08-13 09:00:0022,161,11011,300,7NE3,2NW1970,3
2017-08-13 08:00:0019,064,81010,900,7N7,7N530,0
2017-08-13 07:00:0018,862,51010,801,8N6,8N10
2017-08-13 06:00:0019,458,51010,802,7E8,6E-10
2017-08-13 05:00:0019,462,61011,003,9E7,9E-10
2017-08-13 04:00:0019,864,91010,804,0E11,2E-10
2017-08-13 03:00:0019,766,71010,803,8SE8,4SE00
2017-08-13 02:00:0020,264,71010,901,6N5,1N-10
2017-08-13 01:00:0020,865,21011,403,1NE6,9E-10
2017-08-13 00:00:0021,362,51011,501,9W7,3SW00
2017-08-12 23:00:0022,756,51011,603,8SW8,8W-10
2017-08-12 22:00:0024,053,31011,309,5W22,8NW-10
2017-08-12 21:00:0025,748,21010,8011,4NW23,3NW40
2017-08-12 20:00:0028,040,31010,409,7W20,1W260,0
2017-08-12 19:00:0029,041,21010,8011,3SW19,7SW1160,5
2017-08-12 18:00:0032,634,31011,5010,5SW20,7SW4891,7
2017-08-12 17:00:0032,433,91011,9010,0SW18,8SW6493,2
2017-08-12 16:00:0031,933,11012,2012,8S26,0SE7684,8
2017-08-12 15:00:0031,233,51012,6012,7S24,5S8346,0
2017-08-12 14:00:0031,733,51013,1012,1S25,3S8546,3
2017-08-12 13:00:0031,633,01013,6014,8S28,0S8085,7
2017-08-12 12:00:0031,630,71013,9013,2S24,1SE7154,4
2017-08-12 11:00:0031,131,91013,809,8SE23,1S5762,8
2017-08-12 10:00:0028,137,41013,704,5E13,8SE4061,4
2017-08-12 09:00:0022,743,21013,501,8NE4,5NE2280,4
2017-08-12 08:00:0019,550,31013,001,6E3,9NE660,0
2017-08-12 07:00:0019,448,51012,401,8E8,2E10
2017-08-12 06:00:0020,444,91011,903,1E6,6E-10
2017-08-12 05:00:0021,640,91011,804,2E8,4E-10
2017-08-12 04:00:0022,539,01011,606,0E14,1E00
2017-08-12 03:00:0022,838,51011,506,7E14,1E00
2017-08-12 02:00:0023,437,21011,504,3E10,9E-10
2017-08-12 01:00:0023,835,21011,503,6E9,8NE00
2017-08-12 00:00:0024,233,21011,504,2NE14,3N00
2017-08-11 23:00:0024,430,61011,006,2N11,9N-10
2017-08-11 22:00:0025,427,81010,705,0NW12,6NW-10
2017-08-11 21:00:0027,025,61010,309,4NW21,4NW40
2017-08-11 20:00:0028,622,31010,1012,2NW32,9NW250,0
2017-08-11 19:00:0030,228,01010,4013,3NW30,9NW1110,5
2017-08-11 18:00:0033,031,51011,2014,9NW33,8NW4991,7
2017-08-11 17:00:0033,935,81011,8012,6W32,8W6483,2
2017-08-11 16:00:0032,044,41012,8013,3SW25,0SW7584,8
2017-08-11 15:00:0031,546,41013,3013,0SW23,5S8185,9
2017-08-11 14:00:0031,346,81013,6012,0S22,2SW8426,3
2017-08-11 13:00:0030,648,61014,1010,8S18,8S8015,7
2017-08-11 12:00:0030,348,91014,509,9S20,3S7084,4
2017-08-11 11:00:0029,844,41014,605,7SE14,6SE5712,8
2017-08-11 10:00:0026,642,51014,502,4E6,3E4041,4
2017-08-11 09:00:0021,546,71014,301,3E4,1NE2290,4
2017-08-11 08:00:0018,752,41013,902,6E5,4NE680,0
2017-08-11 07:00:0018,252,21013,701,4E4,6E10
2017-08-11 06:00:0019,048,11013,503,1E5,9E00
2017-08-11 05:00:0020,344,01013,506,5E16,7E-10
2017-08-11 04:00:0020,144,91013,408,5E16,2E-10
2017-08-11 03:00:0018,953,11013,203,4SE8,6SE00
2017-08-11 02:00:0019,151,81013,003,0N5,1N-10
2017-08-11 01:00:0020,248,81013,602,5N8,8N00
2017-08-11 00:00:0021,146,71013,402,8NE5,1E00
2017-08-10 23:00:0022,043,71012,704,0N10,8N-10
2017-08-10 22:00:0023,639,81012,004,8NW12,8NW-10
2017-08-10 21:00:0025,735,71011,705,6NW13,5NW50
2017-08-10 20:00:0026,234,91011,504,3W15,0W240,1
2017-08-10 19:00:0027,529,91012,007,8SW14,6SW1160,6
2017-08-10 18:00:0031,024,91012,909,9SW19,2S5241,9
2017-08-10 17:00:0032,425,01013,309,0SW17,3SW6803,4
2017-08-10 16:00:0031,526,41013,708,9SW20,7SW7944,9
2017-08-10 15:00:0031,026,11014,2010,4SW23,7S8536,0
2017-08-10 14:00:0029,828,81014,5011,6S23,1S8716,1
2017-08-10 13:00:0029,230,31014,7011,9S21,8S8225,5
2017-08-10 12:00:0029,425,91014,8012,2E23,8NE7344,3
2017-08-10 11:00:0026,929,71014,5012,7NE26,6NE5952,7
2017-08-10 10:00:0024,333,11014,6013,5NE29,6N4221,3
2017-08-10 09:00:0021,637,31014,6014,2NE24,2NE2390,4
2017-08-10 08:00:0020,140,91014,4012,0NE27,0NE710,0
2017-08-10 07:00:0019,743,01014,1013,1NE26,2NE10
2017-08-10 06:00:0018,251,21013,808,8NE24,9NE-10
2017-08-10 05:00:0017,458,51013,403,1SE9,7SE00
2017-08-10 04:00:0018,353,51013,504,0NE10,2N-10
2017-08-10 03:00:0016,861,71013,805,2N12,7N-10
2017-08-10 02:00:0017,361,41014,103,8N7,7NE00
2017-08-10 01:00:0017,462,81013,804,3N10,2N-10
2017-08-10 00:00:0017,861,31013,404,8NW12,8N00
2017-08-09 23:00:0018,759,11013,005,0NW11,5W00
2017-08-09 22:00:0019,557,31012,208,7NW20,9NW-10
2017-08-09 21:00:0020,554,51011,4012,6NW27,7NW60
2017-08-09 20:00:0022,647,81011,0013,5NW31,9NW260,0
2017-08-09 19:00:0024,443,61010,6016,9NW35,4NW1280,5
2017-08-09 18:00:0026,938,71010,9020,1NW38,0NW5221,8
2017-08-09 17:00:0028,436,51011,2017,9NW38,5NW6803,5
2017-08-09 16:00:0028,935,81011,6019,1NW38,5NW7965,0
2017-08-09 15:00:0028,636,41012,1017,6NW36,0W8516,1
2017-08-09 14:00:0027,738,61012,6017,2NW33,2NW8646,3
2017-08-09 13:00:0027,438,41013,2015,0NW32,2NW8195,7
2017-08-09 12:00:0026,439,11013,7013,6NW28,8NW7284,4
2017-08-09 11:00:0025,240,31013,7014,4NW31,1NW5912,8
2017-08-09 10:00:0023,142,81013,8013,1NW27,4N4241,4
2017-08-09 09:00:0020,051,51013,9012,4N30,3N2440,4
2017-08-09 08:00:0017,361,21013,908,8NW18,3NW740,0
2017-08-09 07:00:0017,158,91013,808,9NW28,6N20
2017-08-09 06:00:0016,756,71013,506,6NW26,5NE00
2017-08-09 05:00:0016,856,21013,402,8SE7,2SE00
2017-08-09 04:00:0018,049,71013,404,6W13,7SE00
2017-08-09 03:00:0018,148,91013,305,6S12,5S00
2017-08-09 02:00:0018,249,01013,105,2SW10,4S00
2017-08-09 01:00:0018,847,81012,903,7S9,1S00
2017-08-09 00:00:0019,250,31012,604,3NW16,0NW00
2017-08-08 23:00:0019,949,61012,207,4NW18,5N00
2017-08-08 22:00:0020,947,21011,6010,8NW23,8NW-10
2017-08-08 21:00:0022,146,71011,1015,7NW33,6NW50
2017-08-08 20:00:0024,740,21010,8016,1NW34,2NW200,1
2017-08-08 19:00:0026,639,11010,4016,4NW35,2NW1450,6
2017-08-08 18:00:0029,733,51010,4019,8NW38,9NW5391,9
2017-08-08 17:00:0031,231,91010,6018,4NW39,1NW6933,5
2017-08-08 16:00:0032,929,21011,1016,1NW32,1N8065,0
2017-08-08 15:00:0033,029,21011,5014,1NW28,1NW8646,1
2017-08-08 14:00:0031,924,71012,3010,9N24,8NW8806,4
2017-08-08 13:00:0030,530,41012,707,6SW17,9SW8175,8
2017-08-08 12:00:0028,632,11012,805,3NW13,2S7314,4
2017-08-08 11:00:0026,437,11013,007,6NE20,3NE5932,9
2017-08-08 10:00:0024,542,21012,904,1W15,5W4241,4
2017-08-08 09:00:0020,851,61012,702,6S10,5SW2470,4
2017-08-08 08:00:0019,155,91012,403,4E9,5NE770,0
2017-08-08 07:00:0019,156,31011,905,4NE12,3NE20
2017-08-08 06:00:0019,457,11011,605,9NE17,1NE-10
2017-08-08 05:00:0019,556,21011,503,9NE11,8NE00
2017-08-08 04:00:0020,054,51011,405,4NE18,2NE-10
2017-08-08 03:00:0020,252,11011,405,3NE13,9NE-10
2017-08-08 02:00:0020,650,01011,304,0NE11,5NE-10
2017-08-08 01:00:0020,847,11010,904,6NW9,7NW00
2017-08-08 00:00:0021,950,61010,505,9NW17,4N00
2017-08-07 23:00:0023,749,21010,2011,3N26,7N-10
2017-08-07 22:00:0023,946,21009,4010,3NW24,2NW-10
2017-08-07 21:00:0025,740,81008,5013,1NW30,3N40
2017-08-07 20:00:0028,629,51007,6014,5NW30,7NW390,1
2017-08-07 19:00:0031,824,51007,6013,5NW30,3NW1800,6
2017-08-07 18:00:0034,626,01008,1012,3NW28,3W4961,9
2017-08-07 17:00:0035,427,91008,6013,8W31,2W6483,4
2017-08-07 16:00:0036,926,21009,2011,3W20,2W7574,8
2017-08-07 15:00:0036,427,91009,5011,5W21,2W8075,8
2017-08-07 14:00:0034,927,21010,0010,5SW22,7W8246,0
2017-08-07 13:00:0033,227,01010,6011,1SW24,8W7835,5
2017-08-07 12:00:0031,033,51010,605,9SW15,0W6894,1
2017-08-07 11:00:0027,939,41010,706,1SW15,7SW5342,5
2017-08-07 10:00:0026,241,91010,507,8SE18,8E3691,2
2017-08-07 09:00:0022,850,51009,604,4E12,4SE1980,3
2017-08-07 08:00:0020,855,81009,404,1N10,2NE440,0
2017-08-07 07:00:0021,255,11009,404,4SE11,9SE10
2017-08-07 06:00:0020,554,51009,404,0E9,0E-10
2017-08-07 05:00:0020,359,41009,404,9N13,5N00
2017-08-07 04:00:0020,756,71009,803,1NW7,5W-10
2017-08-07 03:00:0021,650,61009,602,8N6,7W-10
2017-08-07 02:00:0021,849,51009,601,5NE5,6N-10
2017-08-07 01:00:0022,646,71009,602,0NW7,6W-10
2017-08-07 00:00:0023,548,41009,403,3NW12,7NW-10
2017-08-06 23:00:0025,241,31009,204,2W9,9W00
2017-08-06 22:00:0028,327,01008,504,9W29,8NW-10
2017-08-06 21:00:0029,030,21007,708,3NW26,3W60
2017-08-06 20:00:0030,828,01007,606,5NW18,4NW560,0
2017-08-06 19:00:0032,525,41007,7010,0NW24,4NW1830,5
2017-08-06 18:00:0036,022,81008,4012,0NW28,7NW4641,8
2017-08-06 17:00:0037,423,31009,0011,3W23,3NW6033,2
2017-08-06 16:00:0036,927,71009,4010,7SW22,1S7544,9
2017-08-06 15:00:0035,529,31009,6013,0SW25,7S8316,0
2017-08-06 14:00:0033,031,91009,7012,4SW22,7SW8076,1
2017-08-06 13:00:0031,634,01010,109,2SW22,8S7805,6
2017-08-06 12:00:0030,536,31010,708,4SW22,6SW6994,4
2017-08-06 11:00:0029,935,11010,807,8S18,0SE5722,9
2017-08-06 10:00:0027,140,41010,705,0SE15,7E4041,4
2017-08-06 09:00:0022,746,31010,502,1N6,5N2300,4
2017-08-06 08:00:0019,351,61010,401,7W10,4NW760,0
2017-08-06 07:00:0018,649,81009,902,4SW9,0SW30
2017-08-06 06:00:0019,149,21009,602,6NW5,4NW-10
2017-08-06 05:00:0019,749,81009,802,3NW5,2NW-10
2017-08-06 04:00:0021,346,41010,003,5SW11,3S00
2017-08-06 03:00:0022,338,81009,902,7SE7,2NE-10
2017-08-06 02:00:0023,339,21010,003,4NE11,3NE-10
2017-08-06 01:00:0023,244,01010,103,8NE12,8NE-10
2017-08-06 00:00:0023,546,11009,802,1NW5,1N-10
2017-08-05 23:00:0024,842,91009,502,6NW9,1NW-10
2017-08-05 22:00:0026,439,71008,607,3NW18,7NW00
2017-08-05 21:00:0028,636,91007,9010,2NW22,8N80
2017-08-05 20:00:0030,835,81007,7013,2NW28,4NW410,1
2017-08-05 19:00:0033,233,51007,8013,3NW31,4NW2200,6
2017-08-05 18:00:0036,531,01008,2015,6NW36,0NW5002,0
2017-08-05 17:00:0039,029,11008,5013,8NW32,8NW6563,6
2017-08-05 16:00:0040,026,41008,9014,7NW27,3NW7695,1
2017-08-05 15:00:0040,226,31009,3011,1NW30,2NW8176,1
2017-08-05 14:00:0038,430,51009,805,4SE13,1S8316,4
2017-08-05 13:00:0036,433,91010,205,5SW14,9SW8005,9
2017-08-05 12:00:0034,338,71010,606,1SE13,8E7104,6
2017-08-05 11:00:0031,745,61010,503,3S8,3SE5763,0
2017-08-05 10:00:0028,852,71010,404,0SW10,3SW4101,5
2017-08-05 09:00:0025,760,11010,003,5S8,6SE2360,5
2017-08-05 08:00:0022,668,91009,601,9SW7,1SW810,0
2017-08-05 07:00:0022,766,01009,301,6W5,6W20
2017-08-05 06:00:0024,160,61009,306,0N13,3N-10
2017-08-05 05:00:0023,661,81009,303,3N9,5NE00
2017-08-05 04:00:0025,554,01009,304,7N16,8NE-10
2017-08-05 03:00:0025,252,11009,503,7NE15,4NE-10
2017-08-05 02:00:0025,050,11009,301,1NW4,4NW-10
2017-08-05 01:00:0026,441,41009,202,9NW8,3NW-10
2017-08-05 00:00:0027,640,31009,103,7N7,7N00
2017-08-04 23:00:0028,742,71008,906,3NW11,8N-10
2017-08-04 22:00:0030,340,31008,407,6NW17,5NW-10
2017-08-04 21:00:0032,236,61007,809,9NW21,2NW50
2017-08-04 20:00:0034,037,01007,4012,6NW26,7NW220,1
2017-08-04 19:00:0035,836,41007,4015,4NW31,6NW2270,7
2017-08-04 18:00:0038,133,11008,2014,1NW32,0NW5252,2
2017-08-04 17:00:0039,231,51008,8014,5NW28,1W6743,9
2017-08-04 16:00:0040,029,91009,4011,5W24,9NW7845,6
2017-08-04 15:00:0040,827,61009,9013,1W23,6W8386,7
2017-08-04 14:00:0039,727,31010,5011,3SW21,7W8547,0
2017-08-04 13:00:0038,327,71011,107,1E18,2NE8056,5
2017-08-04 12:00:0036,430,41011,409,8NE20,0E7145,0
2017-08-04 11:00:0034,035,61011,5012,0NE25,1NE5773,2
2017-08-04 10:00:0030,342,61011,1017,4NE31,0NE4131,6
2017-08-04 09:00:0027,348,71010,8018,6NE41,3NE2400,5
2017-08-04 08:00:0025,553,61010,5012,4NE28,7NE860,0
2017-08-04 07:00:0025,355,21010,4010,0NE21,4NE20
2017-08-04 06:00:0025,753,01010,4011,6NE26,1NE-10
2017-08-04 05:00:0025,953,51010,4013,6NE25,3NE-10
2017-08-04 04:00:0026,153,61010,509,8NE20,5NE-10
2017-08-04 03:00:0026,553,01010,707,3NE20,6N-10
2017-08-04 02:00:0027,551,21011,208,4NE20,6NE-10
2017-08-04 01:00:0028,149,51011,4011,2N23,8NE-10
2017-08-04 00:00:0028,148,71011,209,3N20,3N-10
2017-08-03 23:00:0028,348,31011,0010,7N20,3N-10
2017-08-03 22:00:0028,349,31010,5010,1NW27,7NW-10
2017-08-03 21:00:0029,048,21010,1015,1NW27,9N50
2017-08-03 20:00:0030,447,41009,8015,3NW32,1NW210,1
2017-08-03 19:00:0032,045,31009,7017,8NW38,9NW2380,7
2017-08-03 18:00:0035,339,51010,2018,1NW35,9N5302,2
2017-08-03 17:00:0038,332,81010,7015,2NW32,8N6824,0
2017-08-03 16:00:0038,928,91011,5012,3NW27,5N7995,7
2017-08-03 15:00:0038,123,51012,406,9NE18,2N8646,9
2017-08-03 14:00:0036,326,61013,109,1NE23,2NE8867,1
2017-08-03 13:00:0034,030,01013,9012,7NE25,4N8396,4
2017-08-03 12:00:0031,836,11014,4013,0NE24,7NE7424,9
2017-08-03 11:00:0029,445,01014,8013,5NE27,3NE5983,2
2017-08-03 10:00:0026,453,61014,9011,7NE26,9NE4311,6
2017-08-03 09:00:0023,460,71014,607,6NE19,0NE2540,5
2017-08-03 08:00:0020,968,61014,106,2NE16,7N980,0
2017-08-03 07:00:0020,568,81013,907,3NE14,2NE20
2017-08-03 06:00:0020,567,71013,805,9NE14,8NE00
2017-08-03 05:00:0020,167,81013,705,4NE15,9NE-10
2017-08-03 04:00:0020,564,21014,006,3NE13,0NE-10
2017-08-03 03:00:0019,159,61013,905,5N16,6N-10
2017-08-03 02:00:0019,455,51013,904,2N9,8N-10
2017-08-03 01:00:0019,857,41013,805,4NW11,9NW00
2017-08-03 00:00:0020,754,01013,704,8NW10,3NW00
2017-08-02 23:00:0021,750,31013,405,0NW9,3NW00
2017-08-02 22:00:0023,446,21012,509,0NW20,7N-10
2017-08-02 21:00:0024,346,11011,6012,8NW33,2NW50
2017-08-02 20:00:0025,543,31011,0017,5NW43,5NW230,1
2017-08-02 19:00:0027,539,31010,9016,6NW40,5NW2500,7
2017-08-02 18:00:0031,134,81011,3016,1NW34,3NW5462,1
2017-08-02 17:00:0033,232,51011,7015,0W30,9W6963,8
2017-08-02 16:00:0034,230,71012,2012,1W24,7W8115,4
2017-08-02 15:00:0033,731,61012,7010,6W26,3SW8696,5
2017-08-02 14:00:0032,428,71013,509,6SW21,8W8906,8
2017-08-02 13:00:0030,029,81014,108,2S14,5S8426,2
2017-08-02 12:00:0028,032,11014,607,5SE16,6E7474,8
2017-08-02 11:00:0026,637,61014,803,2N11,3N6093,1
2017-08-02 10:00:0023,547,01014,603,2W12,9W4371,5
2017-08-02 09:00:0020,057,21014,802,5S5,5S2700,5
2017-08-02 08:00:0016,472,61014,602,6N6,7N1140,0
2017-08-02 07:00:0015,474,41014,204,3N8,2N40
2017-08-02 06:00:0015,970,61013,802,6N11,0N00
2017-08-02 05:00:0016,569,11013,704,4N10,6NE00
2017-08-02 04:00:0016,773,31013,801,7NW4,3N-10
2017-08-02 03:00:0017,569,91013,602,3N6,9NW00
2017-08-02 02:00:0018,367,01013,503,1NW9,9NW00
2017-08-02 01:00:0019,462,41013,807,3NW17,2NW-10
2017-08-02 00:00:0020,354,91013,709,6NW19,8NW00
2017-08-01 23:00:0021,051,91013,4010,5NW22,6NW00
2017-08-01 22:00:0021,949,21012,8013,3NW25,8NW00
2017-08-01 21:00:0023,446,21012,0013,4NW28,6NW170
2017-08-01 20:00:0024,544,11011,2017,8NW40,2NW430,1
2017-08-01 19:00:0026,241,21010,6021,0NW39,2NW2310,6
2017-08-01 18:00:0029,035,01010,9021,8NW46,7NW5362,0
2017-08-01 17:00:0030,430,91010,7024,2NW47,0N6933,6
2017-08-01 16:00:0031,329,61010,7021,2NW41,9NW8075,1
2017-08-01 15:00:0031,630,81010,8017,7NW38,1NW8446,0
2017-08-01 14:00:0031,426,91011,1013,0N27,1N8606,2
2017-08-01 13:00:0030,028,71011,6010,3N24,2N8245,5
2017-08-01 12:00:0028,631,51012,1013,5N29,1N7284,1
2017-08-01 11:00:0027,431,91012,108,0N18,6N5902,7
2017-08-01 10:00:0025,234,21012,005,1N15,0N4281,4
2017-08-01 09:00:0021,342,61011,804,9NE12,0NE2150,4
2017-08-01 08:00:0019,745,41011,404,5NE10,9NE290,0
2017-08-01 07:00:0019,846,91010,605,8NE11,9NE10
2017-08-01 06:00:0019,453,61010,102,3NE8,1NE-10
2017-08-01 05:00:0019,554,11009,801,6N6,9E00
2017-08-01 04:00:0020,055,21009,601,8E8,5E-10
2017-08-01 03:00:0020,059,91009,501,9SW6,2SE-10
2017-08-01 02:00:0020,161,51009,501,9W5,2N-10
2017-08-01 01:00:0019,962,21009,301,6SW5,1S00
2017-08-01 00:00:0020,261,81008,901,4W4,6NW00
2017-07-31 23:00:0020,859,41008,602,9NW9,2NW-10
2017-07-31 22:00:0021,357,71008,006,5NW16,4N00
2017-07-31 21:00:0022,251,81007,3011,1NW29,0NW140
2017-07-31 20:00:0023,149,91006,6016,4NW36,3NW810,0
2017-07-31 19:00:0023,750,11006,1017,7NW36,2NW1280,3
2017-07-31 18:00:0024,748,71006,0021,6NW46,6NW2271,0
2017-07-31 17:00:0027,939,01006,0022,7NW46,4NW3812,4
2017-07-31 16:00:0031,435,61006,5017,8NW32,2NW6844,7
2017-07-31 15:00:0032,634,01007,0013,3NW30,6NW8636,4
2017-07-31 14:00:0031,532,51007,809,2SW17,2SW8736,7
2017-07-31 13:00:0029,733,91008,408,8SW17,7S7925,8
2017-07-31 12:00:0028,335,21008,907,9SW16,0SW7494,7
2017-07-31 11:00:0026,438,71009,106,5S14,4SW5933,0
2017-07-31 10:00:0024,042,81009,205,6NE14,5NE4261,5
2017-07-31 09:00:0021,450,11009,3010,9NE21,9NE2460,5
2017-07-31 08:00:0019,556,51008,904,9N14,5N890,0
2017-07-31 07:00:0018,364,21008,302,5S6,3S40
2017-07-31 06:00:0018,459,91007,700,9S3,9E00
2017-07-31 05:00:0019,455,01007,401,9N9,2NE-10
2017-07-31 04:00:0020,551,81007,505,1NE14,6NE-10
2017-07-31 03:00:0020,751,61007,605,6NE11,7NE-10
2017-07-31 02:00:0020,651,71007,904,6N13,5NE-10
2017-07-31 01:00:0021,649,21007,804,6N18,5NW-10
2017-07-31 00:00:0022,648,81007,606,4NW14,3NW-10
2017-07-30 23:00:0023,151,11007,307,2NW14,4NW00
2017-07-30 22:00:0023,853,41006,6010,5NW23,1NW-10
2017-07-30 21:00:0025,351,71006,0014,2NW28,5NW110
2017-07-30 20:00:0027,448,71005,4016,7NW36,4N490,1
2017-07-30 19:00:0030,641,31005,5016,5NW39,6NW2290,6
2017-07-30 18:00:0033,637,01006,1014,9NW30,4NW5162,0
2017-07-30 17:00:0034,636,71006,8014,8NW33,2NW6643,6
2017-07-30 16:00:0036,433,01007,7014,3NW33,7W7795,2
2017-07-30 15:00:0037,331,71008,409,9W22,5W8366,2
2017-07-30 14:00:0036,328,21009,108,5SW18,2SW8486,4
2017-07-30 13:00:0034,528,91009,506,7SW17,6SW8075,8
2017-07-30 12:00:0031,834,91009,805,4SW13,0SW7164,5
2017-07-30 11:00:0030,138,11009,905,5S12,2SW5792,9
2017-07-30 10:00:0027,342,01010,107,5E14,3E4131,5
2017-07-30 09:00:0024,051,31010,105,0E22,5NE2420,5
2017-07-30 08:00:0020,864,71010,102,3E7,9E860,0
2017-07-30 07:00:0019,671,21009,802,9NE7,5NE40
2017-07-30 06:00:0019,671,71009,501,8NW8,1NE-10
2017-07-30 05:00:0020,569,21009,502,0W5,6NW-10
2017-07-30 04:00:0022,165,31009,702,8E7,8E-10
2017-07-30 03:00:0022,659,51009,903,1E9,7E-10
2017-07-30 02:00:0022,656,61010,002,8NE12,4NE-10
2017-07-30 01:00:0023,750,01010,304,5NE10,9NE00
2017-07-30 00:00:0023,739,11010,303,0N6,2N-10
2017-07-29 23:00:0025,036,91010,106,3NW13,1N00
2017-07-29 22:00:0025,744,31009,709,3NW21,0NW-10
2017-07-29 21:00:0026,150,11009,4013,0NW26,5NW100
2017-07-29 20:00:0027,650,71009,0013,5NW27,6NW470,1
2017-07-29 19:00:0031,042,61009,0015,1NW29,3W2270,7
2017-07-29 18:00:0035,533,61009,5013,1NW26,3NW5082,1
2017-07-29 17:00:0036,933,51010,0013,5W30,2W6633,7
2017-07-29 16:00:0038,131,01010,6011,4W27,5W7675,2
2017-07-29 15:00:0037,732,71011,2012,8SW24,7SW8316,4
2017-07-29 14:00:0036,434,91011,7010,6SW18,4W8476,6
2017-07-29 13:00:0033,441,11012,108,3SW19,0SW6455,1
2017-07-29 12:00:0032,442,81012,607,3S12,0S7224,6
2017-07-29 11:00:0030,746,51012,607,5SW13,9SW5662,9
2017-07-29 10:00:0027,954,01012,403,4SE13,8S3571,4
2017-07-29 09:00:0024,464,21012,303,1S9,1SW2090,4
2017-07-29 08:00:0021,971,51011,704,9S12,8W990,0
2017-07-29 07:00:0019,977,31011,503,2NE10,6W80
2017-07-29 06:00:0020,175,91010,902,1W6,9W-10
2017-07-29 05:00:0021,471,21010,602,4NW6,0NE00
2017-07-29 04:00:0022,568,01010,904,2E9,4E-10
2017-07-29 03:00:0022,667,31011,104,3E8,7E-10
2017-07-29 02:00:0023,162,51011,103,5NE14,5NE-10
2017-07-29 01:00:0023,759,71011,102,5NE7,8NE-10
2017-07-29 00:00:0025,454,01010,606,2N14,3N-10
2017-07-28 23:00:0026,050,61010,408,3NW15,3N-10
2017-07-28 22:00:0027,149,21009,808,3NW25,2NW-10
2017-07-28 21:00:0028,647,21009,4013,4NW34,2NW70
2017-07-28 20:00:0030,840,61009,1014,6NW30,7NW280,1
2017-07-28 19:00:0033,334,91008,9017,2NW34,9NW2370,7
2017-07-28 18:00:0036,631,41009,3016,2NW39,4NW5592,2
2017-07-28 17:00:0038,230,11009,7014,6W30,7W7003,8
2017-07-28 16:00:0039,828,11010,1012,0W27,7NW8165,5
2017-07-28 15:00:0038,629,71010,6011,4SW20,4SW8806,6
2017-07-28 14:00:0035,632,51011,1011,3SW18,4SW8936,9
2017-07-28 13:00:0033,936,51011,5010,0SW17,4SW8556,3
2017-07-28 12:00:0033,037,61011,906,4S13,2S7564,9
2017-07-28 11:00:0031,342,41012,006,1SW12,8SW6153,2
2017-07-28 10:00:0028,748,71012,004,4SW20,0SW4471,6
2017-07-28 09:00:0025,359,41012,004,5NE10,7NE2700,6
2017-07-28 08:00:0021,571,01011,804,7NE12,4NE1190,1
2017-07-28 07:00:0019,173,11011,505,1NE175,6N80
2017-07-28 06:00:0018,869,81011,103,2NW7,3NE-10
2017-07-28 05:00:0018,770,21011,002,8NE11,0E-10
2017-07-28 04:00:0020,066,01011,002,2NE6,9E-10
2017-07-28 03:00:0020,962,71011,003,9NE10,1E-10
2017-07-28 02:00:0020,459,41010,702,8E8,0E-10
2017-07-28 01:00:0021,160,91010,404,3N17,2NW00
2017-07-28 00:00:0022,159,21009,905,0NW13,9NW-10
2017-07-27 23:00:0022,957,21009,607,1NW15,1NW-10
2017-07-27 22:00:0024,152,11009,309,0NW18,1NW00
2017-07-27 21:00:0025,945,91008,6011,4NW26,2NW70,0
2017-07-27 20:00:0028,736,31007,9014,9NW28,5NW250,1
2017-07-27 19:00:0032,627,71008,1014,9NW31,1NW2440,8
2017-07-27 18:00:0036,920,71008,7013,8NW28,3W5812,3
2017-07-27 17:00:0037,222,11009,1013,2W26,6NW7263,9
2017-07-27 16:00:0037,422,61009,5013,5NW26,0W8305,6
2017-07-27 15:00:0037,323,01009,8012,4W26,3W8816,7
2017-07-27 14:00:0037,224,11010,109,4W20,5W8857,0
2017-07-27 13:00:0035,123,21010,7010,7SW19,2SW8506,4
2017-07-27 12:00:0034,620,81011,006,0S13,9SW7525,0
2017-07-27 11:00:0032,623,21011,303,9S9,7S6123,3
2017-07-27 10:00:0029,229,71011,304,4S13,1SW4421,7
2017-07-27 09:00:0024,644,31011,003,5S7,0SW2560,5
2017-07-27 08:00:0019,761,61010,603,3SW5,4S1010,0
2017-07-27 07:00:0018,864,21010,303,2SE6,3E50
2017-07-27 06:00:0019,165,01010,102,7E6,2E-10
2017-07-27 05:00:0019,668,91009,701,9NW6,3NW-10
2017-07-27 04:00:0020,175,21009,702,9N8,9NE-10
2017-07-27 03:00:0020,384,91009,702,1NW5,3NW-10
2017-07-27 02:00:0021,187,41009,702,0NW4,6NW00
2017-07-27 01:00:0021,686,41009,801,0N3,5NE00
2017-07-27 00:00:0022,185,21009,700,9N3,0NW-10
2017-07-26 23:00:0022,484,91009,601,6N3,5N00
2017-07-26 22:00:0022,784,21009,100,8W3,1W00
2017-07-26 21:00:0023,580,31008,702,6SW8,5SW100
2017-07-26 20:00:0024,477,01008,305,6S10,4S410,1
2017-07-26 19:00:0026,568,31008,308,5S19,9S2290,7
2017-07-26 18:00:0028,760,71008,708,1S16,1SE5191,9
2017-07-26 17:00:0028,463,11009,209,6S18,8S6683,5
2017-07-26 16:00:0028,861,81009,5011,4S20,4S7835,1
2017-07-26 15:00:0028,461,41009,7013,5S26,6S8456,1
2017-07-26 14:00:0029,251,31009,8013,5S24,1S8556,2
2017-07-26 13:00:0030,443,71010,0012,4SW25,1SW8225,6
2017-07-26 12:00:0030,242,01010,009,9SW20,7S7174,1
2017-07-26 11:00:0030,638,51010,007,8S14,3SW5812,6
2017-07-26 10:00:0027,643,51010,006,1E11,5SE4121,3
2017-07-26 09:00:0023,652,91010,003,9E10,4E2380,4
2017-07-26 08:00:0019,663,61009,502,1N7,9N910,0
2017-07-26 07:00:0018,965,11008,802,1W8,9NW50
2017-07-26 06:00:0019,561,31008,302,6W9,8W00
2017-07-26 05:00:0020,555,71008,103,3W9,4W00
2017-07-26 04:00:0021,351,71008,003,1W8,2W00
2017-07-26 03:00:0022,348,91008,102,7NW6,0NW-10
2017-07-26 02:00:0024,342,41008,503,3NE8,2NE-10
2017-07-26 01:00:0024,842,51008,504,2NE10,0NE-10
2017-07-26 00:00:0025,642,31008,003,5NW6,7NW-10